<?xml version="1.0" encoding="UTF-8" standalone="no" ?>
<gpx xmlns="http://www.topografix.com/GPX/1/1" xmlns:xsi="http://www.w3.org/2001/XMLSchema-instance" xsi:schemaLocation="http://www.topografix.com/GPX/1/1 http://www.topografix.com/GPX/1/1/gpx.xsd" version="1.1" creator="VisuGPX - https://www.visugpx.com">
  <metadata>
    <name>Pic du MONTAIGU</name>
    <desc><![CDATA[Départ du parking de la route forestière                                par la vallée de Lesponne]]></desc>
  </metadata>
  <trk>
    <name><![CDATA[Pic du Montaigu]]></name>
    <trkseg>
      <trkpt lat="42.99022" lon="0.09475">
        <ele>1121.3</ele>
        <time>2016-10-16T07:11:04Z</time>
      </trkpt>
      <trkpt lat="42.99021" lon="0.09475">
        <ele>1121.3</ele>
        <time>2016-10-16T07:11:05Z</time>
      </trkpt>
      <trkpt lat="42.99038" lon="0.09482">
        <ele>1122.7</ele>
        <time>2016-10-16T07:11:49Z</time>
      </trkpt>
      <trkpt lat="42.99047" lon="0.09484">
        <ele>1123.2</ele>
        <time>2016-10-16T07:12:15Z</time>
      </trkpt>
      <trkpt lat="42.99047" lon="0.09485">
        <ele>1123.1</ele>
        <time>2016-10-16T07:12:16Z</time>
      </trkpt>
      <trkpt lat="42.99056" lon="0.09504">
        <ele>1124.5</ele>
        <time>2016-10-16T07:12:33Z</time>
      </trkpt>
      <trkpt lat="42.99062" lon="0.09512">
        <ele>1124.5</ele>
        <time>2016-10-16T07:12:42Z</time>
      </trkpt>
      <trkpt lat="42.99069" lon="0.09517">
        <ele>1127.1</ele>
        <time>2016-10-16T07:12:52Z</time>
      </trkpt>
      <trkpt lat="42.99077" lon="0.0952">
        <ele>1128.1</ele>
        <time>2016-10-16T07:13:01Z</time>
      </trkpt>
      <trkpt lat="42.99085" lon="0.09516">
        <ele>1128.1</ele>
        <time>2016-10-16T07:13:23Z</time>
      </trkpt>
      <trkpt lat="42.99086" lon="0.09515">
        <ele>1128.4</ele>
        <time>2016-10-16T07:13:24Z</time>
      </trkpt>
      <trkpt lat="42.991" lon="0.09516">
        <ele>1131.2</ele>
        <time>2016-10-16T07:13:43Z</time>
      </trkpt>
      <trkpt lat="42.99108" lon="0.09521">
        <ele>1131.7</ele>
        <time>2016-10-16T07:13:49Z</time>
      </trkpt>
      <trkpt lat="42.99115" lon="0.09527">
        <ele>1132.1</ele>
        <time>2016-10-16T07:13:55Z</time>
      </trkpt>
      <trkpt lat="42.99122" lon="0.09533">
        <ele>1133.4</ele>
        <time>2016-10-16T07:14:00Z</time>
      </trkpt>
      <trkpt lat="42.99129" lon="0.09539">
        <ele>1133.4</ele>
        <time>2016-10-16T07:14:06Z</time>
      </trkpt>
      <trkpt lat="42.99137" lon="0.09543">
        <ele>1134.7</ele>
        <time>2016-10-16T07:14:13Z</time>
      </trkpt>
      <trkpt lat="42.99145" lon="0.09544">
        <ele>1136.3</ele>
        <time>2016-10-16T07:14:24Z</time>
      </trkpt>
      <trkpt lat="42.99146" lon="0.09545">
        <ele>1136.4</ele>
        <time>2016-10-16T07:14:25Z</time>
      </trkpt>
      <trkpt lat="42.99162" lon="0.09536">
        <ele>1138.8</ele>
        <time>2016-10-16T07:14:46Z</time>
      </trkpt>
      <trkpt lat="42.9917" lon="0.09532">
        <ele>1139.6</ele>
        <time>2016-10-16T07:14:53Z</time>
      </trkpt>
      <trkpt lat="42.99176" lon="0.09526">
        <ele>1140</ele>
        <time>2016-10-16T07:15:00Z</time>
      </trkpt>
      <trkpt lat="42.99181" lon="0.09516">
        <ele>1141.5</ele>
        <time>2016-10-16T07:15:10Z</time>
      </trkpt>
      <trkpt lat="42.99184" lon="0.09505">
        <ele>1143.2</ele>
        <time>2016-10-16T07:15:22Z</time>
      </trkpt>
      <trkpt lat="42.99188" lon="0.09496">
        <ele>1145.8</ele>
        <time>2016-10-16T07:15:32Z</time>
      </trkpt>
      <trkpt lat="42.99188" lon="0.09495">
        <ele>1146</ele>
        <time>2016-10-16T07:15:33Z</time>
      </trkpt>
      <trkpt lat="42.99191" lon="0.09472">
        <ele>1150.5</ele>
        <time>2016-10-16T07:15:56Z</time>
      </trkpt>
      <trkpt lat="42.99191" lon="0.09469">
        <ele>1150.4</ele>
        <time>2016-10-16T07:16:01Z</time>
      </trkpt>
      <trkpt lat="42.99194" lon="0.09458">
        <ele>1153.7</ele>
        <time>2016-10-16T07:16:20Z</time>
      </trkpt>
      <trkpt lat="42.99196" lon="0.09446">
        <ele>1155.6</ele>
        <time>2016-10-16T07:16:31Z</time>
      </trkpt>
      <trkpt lat="42.99193" lon="0.09435">
        <ele>1157.1</ele>
        <time>2016-10-16T07:16:42Z</time>
      </trkpt>
      <trkpt lat="42.99193" lon="0.09434">
        <ele>1156.9</ele>
        <time>2016-10-16T07:16:43Z</time>
      </trkpt>
      <trkpt lat="42.99186" lon="0.09419">
        <ele>1158.2</ele>
        <time>2016-10-16T07:16:58Z</time>
      </trkpt>
      <trkpt lat="42.99181" lon="0.0941">
        <ele>1161.8</ele>
        <time>2016-10-16T07:17:06Z</time>
      </trkpt>
      <trkpt lat="42.99176" lon="0.09401">
        <ele>1163.8</ele>
        <time>2016-10-16T07:17:14Z</time>
      </trkpt>
      <trkpt lat="42.99171" lon="0.09392">
        <ele>1165.8</ele>
        <time>2016-10-16T07:17:22Z</time>
      </trkpt>
      <trkpt lat="42.99169" lon="0.09385">
        <ele>1166.8</ele>
        <time>2016-10-16T07:17:32Z</time>
      </trkpt>
      <trkpt lat="42.99167" lon="0.09376">
        <ele>1167.4</ele>
        <time>2016-10-16T07:17:44Z</time>
      </trkpt>
      <trkpt lat="42.99166" lon="0.09362">
        <ele>1171.1</ele>
        <time>2016-10-16T07:18:00Z</time>
      </trkpt>
      <trkpt lat="42.99167" lon="0.0935">
        <ele>1172.2</ele>
        <time>2016-10-16T07:18:11Z</time>
      </trkpt>
      <trkpt lat="42.99167" lon="0.09338">
        <ele>1174.7</ele>
        <time>2016-10-16T07:18:22Z</time>
      </trkpt>
      <trkpt lat="42.99167" lon="0.0933">
        <ele>1176.3</ele>
        <time>2016-10-16T07:18:32Z</time>
      </trkpt>
      <trkpt lat="42.99173" lon="0.09315">
        <ele>1177.1</ele>
        <time>2016-10-16T07:18:57Z</time>
      </trkpt>
      <trkpt lat="42.99174" lon="0.09303">
        <ele>1180.6</ele>
        <time>2016-10-16T07:19:06Z</time>
      </trkpt>
      <trkpt lat="42.99171" lon="0.09292">
        <ele>1182.1</ele>
        <time>2016-10-16T07:19:16Z</time>
      </trkpt>
      <trkpt lat="42.99171" lon="0.09281">
        <ele>1184.1</ele>
        <time>2016-10-16T07:19:25Z</time>
      </trkpt>
      <trkpt lat="42.99171" lon="0.09269">
        <ele>1187.1</ele>
        <time>2016-10-16T07:19:40Z</time>
      </trkpt>
      <trkpt lat="42.99175" lon="0.09258">
        <ele>1189.1</ele>
        <time>2016-10-16T07:19:53Z</time>
      </trkpt>
      <trkpt lat="42.99179" lon="0.09248">
        <ele>1191.2</ele>
        <time>2016-10-16T07:20:08Z</time>
      </trkpt>
      <trkpt lat="42.99179" lon="0.09247">
        <ele>1191.2</ele>
        <time>2016-10-16T07:20:09Z</time>
      </trkpt>
      <trkpt lat="42.99187" lon="0.09226">
        <ele>1193.6</ele>
        <time>2016-10-16T07:20:33Z</time>
      </trkpt>
      <trkpt lat="42.99188" lon="0.09214">
        <ele>1196.8</ele>
        <time>2016-10-16T07:20:48Z</time>
      </trkpt>
      <trkpt lat="42.99188" lon="0.09203">
        <ele>1198.1</ele>
        <time>2016-10-16T07:21:00Z</time>
      </trkpt>
      <trkpt lat="42.99188" lon="0.09191">
        <ele>1200.2</ele>
        <time>2016-10-16T07:21:12Z</time>
      </trkpt>
      <trkpt lat="42.99188" lon="0.0919">
        <ele>1200.2</ele>
        <time>2016-10-16T07:21:13Z</time>
      </trkpt>
      <trkpt lat="42.99185" lon="0.09167">
        <ele>1204.9</ele>
        <time>2016-10-16T07:21:41Z</time>
      </trkpt>
      <trkpt lat="42.99182" lon="0.09156">
        <ele>1206.9</ele>
        <time>2016-10-16T07:21:54Z</time>
      </trkpt>
      <trkpt lat="42.99183" lon="0.09144">
        <ele>1209</ele>
        <time>2016-10-16T07:22:23Z</time>
      </trkpt>
      <trkpt lat="42.99183" lon="0.09143">
        <ele>1209.2</ele>
        <time>2016-10-16T07:22:24Z</time>
      </trkpt>
      <trkpt lat="42.99182" lon="0.09121">
        <ele>1214.6</ele>
        <time>2016-10-16T07:22:50Z</time>
      </trkpt>
      <trkpt lat="42.99177" lon="0.09111">
        <ele>1215.6</ele>
        <time>2016-10-16T07:23:26Z</time>
      </trkpt>
      <trkpt lat="42.99176" lon="0.09111">
        <ele>1215.7</ele>
        <time>2016-10-16T07:23:27Z</time>
      </trkpt>
      <trkpt lat="42.9918" lon="0.09089">
        <ele>1218.1</ele>
        <time>2016-10-16T07:23:57Z</time>
      </trkpt>
      <trkpt lat="42.99183" lon="0.09078">
        <ele>1218.6</ele>
        <time>2016-10-16T07:24:06Z</time>
      </trkpt>
      <trkpt lat="42.99183" lon="0.09066">
        <ele>1219.2</ele>
        <time>2016-10-16T07:24:13Z</time>
      </trkpt>
      <trkpt lat="42.99187" lon="0.09057">
        <ele>1220.1</ele>
        <time>2016-10-16T07:24:21Z</time>
      </trkpt>
      <trkpt lat="42.9919" lon="0.09045">
        <ele>1221.5</ele>
        <time>2016-10-16T07:24:33Z</time>
      </trkpt>
      <trkpt lat="42.99191" lon="0.09044">
        <ele>1221.6</ele>
        <time>2016-10-16T07:24:34Z</time>
      </trkpt>
      <trkpt lat="42.99202" lon="0.09028">
        <ele>1224.6</ele>
        <time>2016-10-16T07:24:50Z</time>
      </trkpt>
      <trkpt lat="42.99207" lon="0.09018">
        <ele>1224.3</ele>
        <time>2016-10-16T07:24:57Z</time>
      </trkpt>
      <trkpt lat="42.99211" lon="0.09008">
        <ele>1225.9</ele>
        <time>2016-10-16T07:25:07Z</time>
      </trkpt>
      <trkpt lat="42.99215" lon="0.08997">
        <ele>1226.7</ele>
        <time>2016-10-16T07:25:18Z</time>
      </trkpt>
      <trkpt lat="42.9922" lon="0.08987">
        <ele>1229.2</ele>
        <time>2016-10-16T07:25:27Z</time>
      </trkpt>
      <trkpt lat="42.99225" lon="0.08978">
        <ele>1229.9</ele>
        <time>2016-10-16T07:25:35Z</time>
      </trkpt>
      <trkpt lat="42.99227" lon="0.08977">
        <ele>1230</ele>
        <time>2016-10-16T07:25:36Z</time>
      </trkpt>
      <trkpt lat="42.99237" lon="0.08961">
        <ele>1235.6</ele>
        <time>2016-10-16T07:26:02Z</time>
      </trkpt>
      <trkpt lat="42.99242" lon="0.08951">
        <ele>1236.3</ele>
        <time>2016-10-16T07:26:13Z</time>
      </trkpt>
      <trkpt lat="42.99242" lon="0.0894">
        <ele>1238.4</ele>
        <time>2016-10-16T07:26:21Z</time>
      </trkpt>
      <trkpt lat="42.99244" lon="0.08929">
        <ele>1239.6</ele>
        <time>2016-10-16T07:26:28Z</time>
      </trkpt>
      <trkpt lat="42.99248" lon="0.08919">
        <ele>1240.9</ele>
        <time>2016-10-16T07:26:36Z</time>
      </trkpt>
      <trkpt lat="42.99248" lon="0.08918">
        <ele>1240.9</ele>
        <time>2016-10-16T07:26:37Z</time>
      </trkpt>
      <trkpt lat="42.99253" lon="0.08896">
        <ele>1245.4</ele>
        <time>2016-10-16T07:26:57Z</time>
      </trkpt>
      <trkpt lat="42.99255" lon="0.08886">
        <ele>1247.6</ele>
        <time>2016-10-16T07:27:10Z</time>
      </trkpt>
      <trkpt lat="42.99262" lon="0.08879">
        <ele>1249.7</ele>
        <time>2016-10-16T07:27:19Z</time>
      </trkpt>
      <trkpt lat="42.99269" lon="0.08872">
        <ele>1251.7</ele>
        <time>2016-10-16T07:27:39Z</time>
      </trkpt>
      <trkpt lat="42.9927" lon="0.08872">
        <ele>1252</ele>
        <time>2016-10-16T07:27:40Z</time>
      </trkpt>
      <trkpt lat="42.99268" lon="0.08849">
        <ele>1257.4</ele>
        <time>2016-10-16T07:28:11Z</time>
      </trkpt>
      <trkpt lat="42.99265" lon="0.08838">
        <ele>1257.9</ele>
        <time>2016-10-16T07:28:20Z</time>
      </trkpt>
      <trkpt lat="42.99267" lon="0.08827">
        <ele>1258.7</ele>
        <time>2016-10-16T07:28:29Z</time>
      </trkpt>
      <trkpt lat="42.99268" lon="0.08815">
        <ele>1260</ele>
        <time>2016-10-16T07:28:38Z</time>
      </trkpt>
      <trkpt lat="42.99267" lon="0.08803">
        <ele>1262.6</ele>
        <time>2016-10-16T07:28:49Z</time>
      </trkpt>
      <trkpt lat="42.99268" lon="0.08802">
        <ele>1262.5</ele>
        <time>2016-10-16T07:28:50Z</time>
      </trkpt>
      <trkpt lat="42.99269" lon="0.08781">
        <ele>1264.2</ele>
        <time>2016-10-16T07:30:14Z</time>
      </trkpt>
      <trkpt lat="42.99268" lon="0.0878">
        <ele>1264.3</ele>
        <time>2016-10-16T07:30:15Z</time>
      </trkpt>
      <trkpt lat="42.99267" lon="0.08757">
        <ele>1268.6</ele>
        <time>2016-10-16T07:31:09Z</time>
      </trkpt>
      <trkpt lat="42.99268" lon="0.08745">
        <ele>1269</ele>
        <time>2016-10-16T07:31:19Z</time>
      </trkpt>
      <trkpt lat="42.99268" lon="0.08744">
        <ele>1268.8</ele>
        <time>2016-10-16T07:31:20Z</time>
      </trkpt>
      <trkpt lat="42.99271" lon="0.08724">
        <ele>1270.5</ele>
        <time>2016-10-16T07:31:34Z</time>
      </trkpt>
      <trkpt lat="42.99275" lon="0.08713">
        <ele>1269.8</ele>
        <time>2016-10-16T07:31:44Z</time>
      </trkpt>
      <trkpt lat="42.99284" lon="0.08711">
        <ele>1270.5</ele>
        <time>2016-10-16T07:31:54Z</time>
      </trkpt>
      <trkpt lat="42.99292" lon="0.08707">
        <ele>1272.8</ele>
        <time>2016-10-16T07:32:05Z</time>
      </trkpt>
      <trkpt lat="42.99292" lon="0.08697">
        <ele>1275.2</ele>
        <time>2016-10-16T07:32:13Z</time>
      </trkpt>
      <trkpt lat="42.99289" lon="0.08686">
        <ele>1276.3</ele>
        <time>2016-10-16T07:32:21Z</time>
      </trkpt>
      <trkpt lat="42.99289" lon="0.08685">
        <ele>1276.3</ele>
        <time>2016-10-16T07:32:22Z</time>
      </trkpt>
      <trkpt lat="42.99294" lon="0.08665">
        <ele>1279.7</ele>
        <time>2016-10-16T07:32:37Z</time>
      </trkpt>
      <trkpt lat="42.993" lon="0.08657">
        <ele>1280.8</ele>
        <time>2016-10-16T07:32:47Z</time>
      </trkpt>
      <trkpt lat="42.99302" lon="0.08645">
        <ele>1282.4</ele>
        <time>2016-10-16T07:32:57Z</time>
      </trkpt>
      <trkpt lat="42.99305" lon="0.08634">
        <ele>1284.8</ele>
        <time>2016-10-16T07:33:07Z</time>
      </trkpt>
      <trkpt lat="42.9931" lon="0.08625">
        <ele>1285.5</ele>
        <time>2016-10-16T07:33:15Z</time>
      </trkpt>
      <trkpt lat="42.99315" lon="0.08615">
        <ele>1287.7</ele>
        <time>2016-10-16T07:33:24Z</time>
      </trkpt>
      <trkpt lat="42.99315" lon="0.08614">
        <ele>1287.8</ele>
        <time>2016-10-16T07:33:25Z</time>
      </trkpt>
      <trkpt lat="42.99324" lon="0.08595">
        <ele>1288.5</ele>
        <time>2016-10-16T07:33:42Z</time>
      </trkpt>
      <trkpt lat="42.99328" lon="0.08584">
        <ele>1288.7</ele>
        <time>2016-10-16T07:33:52Z</time>
      </trkpt>
      <trkpt lat="42.99332" lon="0.08574">
        <ele>1290.5</ele>
        <time>2016-10-16T07:34:01Z</time>
      </trkpt>
      <trkpt lat="42.99336" lon="0.08564">
        <ele>1291.1</ele>
        <time>2016-10-16T07:34:10Z</time>
      </trkpt>
      <trkpt lat="42.99341" lon="0.08555">
        <ele>1292.4</ele>
        <time>2016-10-16T07:34:19Z</time>
      </trkpt>
      <trkpt lat="42.99344" lon="0.08543">
        <ele>1295</ele>
        <time>2016-10-16T07:34:30Z</time>
      </trkpt>
      <trkpt lat="42.99344" lon="0.08542">
        <ele>1295.3</ele>
        <time>2016-10-16T07:34:31Z</time>
      </trkpt>
      <trkpt lat="42.99346" lon="0.0852">
        <ele>1298.5</ele>
        <time>2016-10-16T07:36:51Z</time>
      </trkpt>
      <trkpt lat="42.99346" lon="0.08519">
        <ele>1298.6</ele>
        <time>2016-10-16T07:36:52Z</time>
      </trkpt>
      <trkpt lat="42.99357" lon="0.08501">
        <ele>1301</ele>
        <time>2016-10-16T07:37:11Z</time>
      </trkpt>
      <trkpt lat="42.99362" lon="0.08493">
        <ele>1302.4</ele>
        <time>2016-10-16T07:37:18Z</time>
      </trkpt>
      <trkpt lat="42.99368" lon="0.08485">
        <ele>1303.6</ele>
        <time>2016-10-16T07:37:29Z</time>
      </trkpt>
      <trkpt lat="42.99373" lon="0.08475">
        <ele>1303.8</ele>
        <time>2016-10-16T07:37:38Z</time>
      </trkpt>
      <trkpt lat="42.99379" lon="0.08466">
        <ele>1305.9</ele>
        <time>2016-10-16T07:37:47Z</time>
      </trkpt>
      <trkpt lat="42.99386" lon="0.08459">
        <ele>1308.2</ele>
        <time>2016-10-16T07:37:57Z</time>
      </trkpt>
      <trkpt lat="42.99387" lon="0.08459">
        <ele>1308.5</ele>
        <time>2016-10-16T07:37:58Z</time>
      </trkpt>
      <trkpt lat="42.99397" lon="0.08442">
        <ele>1311.8</ele>
        <time>2016-10-16T07:38:16Z</time>
      </trkpt>
      <trkpt lat="42.99401" lon="0.08431">
        <ele>1314.6</ele>
        <time>2016-10-16T07:38:27Z</time>
      </trkpt>
      <trkpt lat="42.99403" lon="0.0842">
        <ele>1317</ele>
        <time>2016-10-16T07:38:40Z</time>
      </trkpt>
      <trkpt lat="42.99409" lon="0.08411">
        <ele>1320.9</ele>
        <time>2016-10-16T07:38:56Z</time>
      </trkpt>
      <trkpt lat="42.99411" lon="0.084">
        <ele>1325</ele>
        <time>2016-10-16T07:39:17Z</time>
      </trkpt>
      <trkpt lat="42.99411" lon="0.08399">
        <ele>1325.4</ele>
        <time>2016-10-16T07:39:18Z</time>
      </trkpt>
      <trkpt lat="42.99417" lon="0.08379">
        <ele>1328.5</ele>
        <time>2016-10-16T07:39:34Z</time>
      </trkpt>
      <trkpt lat="42.99421" lon="0.08369">
        <ele>1330</ele>
        <time>2016-10-16T07:39:44Z</time>
      </trkpt>
      <trkpt lat="42.99426" lon="0.08359">
        <ele>1331.7</ele>
        <time>2016-10-16T07:39:54Z</time>
      </trkpt>
      <trkpt lat="42.99433" lon="0.08354">
        <ele>1332.5</ele>
        <time>2016-10-16T07:40:03Z</time>
      </trkpt>
      <trkpt lat="42.9944" lon="0.08347">
        <ele>1333.3</ele>
        <time>2016-10-16T07:40:13Z</time>
      </trkpt>
      <trkpt lat="42.99443" lon="0.08336">
        <ele>1334.5</ele>
        <time>2016-10-16T07:40:22Z</time>
      </trkpt>
      <trkpt lat="42.99444" lon="0.08335">
        <ele>1334.7</ele>
        <time>2016-10-16T07:40:23Z</time>
      </trkpt>
      <trkpt lat="42.99453" lon="0.08316">
        <ele>1336.5</ele>
        <time>2016-10-16T07:40:39Z</time>
      </trkpt>
      <trkpt lat="42.99458" lon="0.08307">
        <ele>1336.9</ele>
        <time>2016-10-16T07:40:47Z</time>
      </trkpt>
      <trkpt lat="42.99461" lon="0.08296">
        <ele>1336.9</ele>
        <time>2016-10-16T07:40:55Z</time>
      </trkpt>
      <trkpt lat="42.99467" lon="0.08288">
        <ele>1338.3</ele>
        <time>2016-10-16T07:41:04Z</time>
      </trkpt>
      <trkpt lat="42.99469" lon="0.08276">
        <ele>1338.6</ele>
        <time>2016-10-16T07:41:15Z</time>
      </trkpt>
      <trkpt lat="42.99475" lon="0.08268">
        <ele>1339.8</ele>
        <time>2016-10-16T07:41:26Z</time>
      </trkpt>
      <trkpt lat="42.99475" lon="0.08267">
        <ele>1339.9</ele>
        <time>2016-10-16T07:41:27Z</time>
      </trkpt>
      <trkpt lat="42.99484" lon="0.08249">
        <ele>1342</ele>
        <time>2016-10-16T07:41:49Z</time>
      </trkpt>
      <trkpt lat="42.99491" lon="0.08241">
        <ele>1342.6</ele>
        <time>2016-10-16T07:41:59Z</time>
      </trkpt>
      <trkpt lat="42.99496" lon="0.08232">
        <ele>1344.2</ele>
        <time>2016-10-16T07:42:13Z</time>
      </trkpt>
      <trkpt lat="42.99502" lon="0.08225">
        <ele>1345.8</ele>
        <time>2016-10-16T07:42:21Z</time>
      </trkpt>
      <trkpt lat="42.99509" lon="0.08218">
        <ele>1346.4</ele>
        <time>2016-10-16T07:42:29Z</time>
      </trkpt>
      <trkpt lat="42.9951" lon="0.08217">
        <ele>1346.3</ele>
        <time>2016-10-16T07:42:30Z</time>
      </trkpt>
      <trkpt lat="42.9952" lon="0.08199">
        <ele>1349.3</ele>
        <time>2016-10-16T07:42:51Z</time>
      </trkpt>
      <trkpt lat="42.99525" lon="0.0819">
        <ele>1352.7</ele>
        <time>2016-10-16T07:43:03Z</time>
      </trkpt>
      <trkpt lat="42.99532" lon="0.08181">
        <ele>1354.4</ele>
        <time>2016-10-16T07:43:26Z</time>
      </trkpt>
      <trkpt lat="42.99536" lon="0.08171">
        <ele>1356.5</ele>
        <time>2016-10-16T07:43:50Z</time>
      </trkpt>
      <trkpt lat="42.99536" lon="0.0817">
        <ele>1356.5</ele>
        <time>2016-10-16T07:43:51Z</time>
      </trkpt>
      <trkpt lat="42.99546" lon="0.08151">
        <ele>1363</ele>
        <time>2016-10-16T07:44:29Z</time>
      </trkpt>
      <trkpt lat="42.99552" lon="0.08143">
        <ele>1364.6</ele>
        <time>2016-10-16T07:44:41Z</time>
      </trkpt>
      <trkpt lat="42.99556" lon="0.08134">
        <ele>1366.4</ele>
        <time>2016-10-16T07:44:54Z</time>
      </trkpt>
      <trkpt lat="42.99557" lon="0.08132">
        <ele>1366.4</ele>
        <time>2016-10-16T07:44:55Z</time>
      </trkpt>
      <trkpt lat="42.99563" lon="0.08112">
        <ele>1370.5</ele>
        <time>2016-10-16T07:45:13Z</time>
      </trkpt>
      <trkpt lat="42.99567" lon="0.08102">
        <ele>1372.8</ele>
        <time>2016-10-16T07:45:23Z</time>
      </trkpt>
      <trkpt lat="42.99572" lon="0.08093">
        <ele>1373.5</ele>
        <time>2016-10-16T07:45:31Z</time>
      </trkpt>
      <trkpt lat="42.99577" lon="0.08083">
        <ele>1374.8</ele>
        <time>2016-10-16T07:45:41Z</time>
      </trkpt>
      <trkpt lat="42.99583" lon="0.08075">
        <ele>1375.7</ele>
        <time>2016-10-16T07:45:50Z</time>
      </trkpt>
      <trkpt lat="42.99588" lon="0.08064">
        <ele>1377</ele>
        <time>2016-10-16T07:46:03Z</time>
      </trkpt>
      <trkpt lat="42.99589" lon="0.08064">
        <ele>1376.9</ele>
        <time>2016-10-16T07:46:04Z</time>
      </trkpt>
      <trkpt lat="42.99601" lon="0.08048">
        <ele>1379.9</ele>
        <time>2016-10-16T07:46:36Z</time>
      </trkpt>
      <trkpt lat="42.99607" lon="0.08041">
        <ele>1381.7</ele>
        <time>2016-10-16T07:46:55Z</time>
      </trkpt>
      <trkpt lat="42.99613" lon="0.08031">
        <ele>1384.6</ele>
        <time>2016-10-16T07:47:08Z</time>
      </trkpt>
      <trkpt lat="42.99613" lon="0.08031">
        <ele>1384.8</ele>
        <time>2016-10-16T07:47:09Z</time>
      </trkpt>
      <trkpt lat="42.99625" lon="0.08014">
        <ele>1389.7</ele>
        <time>2016-10-16T07:47:35Z</time>
      </trkpt>
      <trkpt lat="42.99629" lon="0.08004">
        <ele>1391.9</ele>
        <time>2016-10-16T07:47:46Z</time>
      </trkpt>
      <trkpt lat="42.99632" lon="0.07993">
        <ele>1393</ele>
        <time>2016-10-16T07:47:56Z</time>
      </trkpt>
      <trkpt lat="42.99637" lon="0.07984">
        <ele>1394.5</ele>
        <time>2016-10-16T07:48:06Z</time>
      </trkpt>
      <trkpt lat="42.99643" lon="0.07976">
        <ele>1396.3</ele>
        <time>2016-10-16T07:48:18Z</time>
      </trkpt>
      <trkpt lat="42.99644" lon="0.07975">
        <ele>1396.5</ele>
        <time>2016-10-16T07:48:19Z</time>
      </trkpt>
      <trkpt lat="42.99656" lon="0.0798">
        <ele>1400.5</ele>
        <time>2016-10-16T07:48:53Z</time>
      </trkpt>
      <trkpt lat="42.99662" lon="0.07989">
        <ele>1402.5</ele>
        <time>2016-10-16T07:49:06Z</time>
      </trkpt>
      <trkpt lat="42.9967" lon="0.07984">
        <ele>1406.8</ele>
        <time>2016-10-16T07:49:32Z</time>
      </trkpt>
      <trkpt lat="42.9967" lon="0.07984">
        <ele>1407.3</ele>
        <time>2016-10-16T07:49:33Z</time>
      </trkpt>
      <trkpt lat="42.99676" lon="0.07962">
        <ele>1416</ele>
        <time>2016-10-16T07:50:21Z</time>
      </trkpt>
      <trkpt lat="42.99679" lon="0.07951">
        <ele>1418.6</ele>
        <time>2016-10-16T07:50:39Z</time>
      </trkpt>
      <trkpt lat="42.9968" lon="0.07951">
        <ele>1418.6</ele>
        <time>2016-10-16T07:50:40Z</time>
      </trkpt>
      <trkpt lat="42.99686" lon="0.0793">
        <ele>1424.8</ele>
        <time>2016-10-16T07:51:10Z</time>
      </trkpt>
      <trkpt lat="42.99689" lon="0.07919">
        <ele>1427.1</ele>
        <time>2016-10-16T07:51:25Z</time>
      </trkpt>
      <trkpt lat="42.99685" lon="0.07908">
        <ele>1430.4</ele>
        <time>2016-10-16T07:51:44Z</time>
      </trkpt>
      <trkpt lat="42.99685" lon="0.07907">
        <ele>1430.8</ele>
        <time>2016-10-16T07:51:45Z</time>
      </trkpt>
      <trkpt lat="42.99686" lon="0.07921">
        <ele>1435</ele>
        <time>2016-10-16T07:52:54Z</time>
      </trkpt>
      <trkpt lat="42.99693" lon="0.079">
        <ele>1434.5</ele>
        <time>2016-10-16T07:53:35Z</time>
      </trkpt>
      <trkpt lat="42.99688" lon="0.0789">
        <ele>1434.3</ele>
        <time>2016-10-16T07:53:46Z</time>
      </trkpt>
      <trkpt lat="42.99686" lon="0.07878">
        <ele>1435.9</ele>
        <time>2016-10-16T07:53:58Z</time>
      </trkpt>
      <trkpt lat="42.99686" lon="0.07877">
        <ele>1436.1</ele>
        <time>2016-10-16T07:53:59Z</time>
      </trkpt>
      <trkpt lat="42.9968" lon="0.07858">
        <ele>1436.9</ele>
        <time>2016-10-16T07:54:20Z</time>
      </trkpt>
      <trkpt lat="42.99679" lon="0.07845">
        <ele>1439.1</ele>
        <time>2016-10-16T07:54:31Z</time>
      </trkpt>
      <trkpt lat="42.99679" lon="0.07834">
        <ele>1440.4</ele>
        <time>2016-10-16T07:54:43Z</time>
      </trkpt>
      <trkpt lat="42.9968" lon="0.07822">
        <ele>1440.9</ele>
        <time>2016-10-16T07:54:54Z</time>
      </trkpt>
      <trkpt lat="42.99679" lon="0.07811">
        <ele>1442.4</ele>
        <time>2016-10-16T07:55:03Z</time>
      </trkpt>
      <trkpt lat="42.99679" lon="0.07809">
        <ele>1442.6</ele>
        <time>2016-10-16T07:55:04Z</time>
      </trkpt>
      <trkpt lat="42.99681" lon="0.07787">
        <ele>1445.8</ele>
        <time>2016-10-16T07:55:27Z</time>
      </trkpt>
      <trkpt lat="42.99686" lon="0.07776">
        <ele>1447.7</ele>
        <time>2016-10-16T07:55:42Z</time>
      </trkpt>
      <trkpt lat="42.99686" lon="0.07765">
        <ele>1449.3</ele>
        <time>2016-10-16T07:55:53Z</time>
      </trkpt>
      <trkpt lat="42.99687" lon="0.07753">
        <ele>1452</ele>
        <time>2016-10-16T07:56:08Z</time>
      </trkpt>
      <trkpt lat="42.99687" lon="0.07752">
        <ele>1451.8</ele>
        <time>2016-10-16T07:56:09Z</time>
      </trkpt>
      <trkpt lat="42.99692" lon="0.07731">
        <ele>1456</ele>
        <time>2016-10-16T07:56:31Z</time>
      </trkpt>
      <trkpt lat="42.99699" lon="0.07725">
        <ele>1458</ele>
        <time>2016-10-16T07:56:44Z</time>
      </trkpt>
      <trkpt lat="42.99703" lon="0.07715">
        <ele>1461.1</ele>
        <time>2016-10-16T07:56:57Z</time>
      </trkpt>
      <trkpt lat="42.99705" lon="0.07703">
        <ele>1465.1</ele>
        <time>2016-10-16T07:57:16Z</time>
      </trkpt>
      <trkpt lat="42.99705" lon="0.07703">
        <ele>1465.4</ele>
        <time>2016-10-16T07:57:17Z</time>
      </trkpt>
      <trkpt lat="42.99707" lon="0.07679">
        <ele>1472.1</ele>
        <time>2016-10-16T07:57:52Z</time>
      </trkpt>
      <trkpt lat="42.99707" lon="0.07667">
        <ele>1475.5</ele>
        <time>2016-10-16T07:58:08Z</time>
      </trkpt>
      <trkpt lat="42.99703" lon="0.07656">
        <ele>1478.2</ele>
        <time>2016-10-16T07:58:25Z</time>
      </trkpt>
      <trkpt lat="42.99703" lon="0.07655">
        <ele>1478.1</ele>
        <time>2016-10-16T07:58:26Z</time>
      </trkpt>
      <trkpt lat="42.99695" lon="0.07636">
        <ele>1482.3</ele>
        <time>2016-10-16T07:58:54Z</time>
      </trkpt>
      <trkpt lat="42.99691" lon="0.07626">
        <ele>1484.5</ele>
        <time>2016-10-16T07:59:11Z</time>
      </trkpt>
      <trkpt lat="42.9969" lon="0.07614">
        <ele>1487.6</ele>
        <time>2016-10-16T07:59:26Z</time>
      </trkpt>
      <trkpt lat="42.9969" lon="0.07613">
        <ele>1487.3</ele>
        <time>2016-10-16T07:59:27Z</time>
      </trkpt>
      <trkpt lat="42.99685" lon="0.07591">
        <ele>1494.3</ele>
        <time>2016-10-16T08:00:01Z</time>
      </trkpt>
      <trkpt lat="42.99683" lon="0.0758">
        <ele>1497.3</ele>
        <time>2016-10-16T08:00:19Z</time>
      </trkpt>
      <trkpt lat="42.99681" lon="0.07568">
        <ele>1502</ele>
        <time>2016-10-16T08:02:09Z</time>
      </trkpt>
      <trkpt lat="42.99681" lon="0.07568">
        <ele>1501.9</ele>
        <time>2016-10-16T08:02:10Z</time>
      </trkpt>
      <trkpt lat="42.99675" lon="0.07546">
        <ele>1507.3</ele>
        <time>2016-10-16T08:02:42Z</time>
      </trkpt>
      <trkpt lat="42.99674" lon="0.07535">
        <ele>1511.3</ele>
        <time>2016-10-16T08:02:57Z</time>
      </trkpt>
      <trkpt lat="42.99676" lon="0.07523">
        <ele>1514.4</ele>
        <time>2016-10-16T08:03:17Z</time>
      </trkpt>
      <trkpt lat="42.99676" lon="0.07522">
        <ele>1514.8</ele>
        <time>2016-10-16T08:03:18Z</time>
      </trkpt>
      <trkpt lat="42.99679" lon="0.075">
        <ele>1520.3</ele>
        <time>2016-10-16T08:03:48Z</time>
      </trkpt>
      <trkpt lat="42.99677" lon="0.07489">
        <ele>1522.9</ele>
        <time>2016-10-16T08:04:04Z</time>
      </trkpt>
      <trkpt lat="42.99678" lon="0.07477">
        <ele>1527.1</ele>
        <time>2016-10-16T08:04:23Z</time>
      </trkpt>
      <trkpt lat="42.99678" lon="0.07476">
        <ele>1527</ele>
        <time>2016-10-16T08:04:24Z</time>
      </trkpt>
      <trkpt lat="42.99675" lon="0.07453">
        <ele>1536.4</ele>
        <time>2016-10-16T08:05:17Z</time>
      </trkpt>
      <trkpt lat="42.9967" lon="0.07444">
        <ele>1538.7</ele>
        <time>2016-10-16T08:06:46Z</time>
      </trkpt>
      <trkpt lat="42.9967" lon="0.07443">
        <ele>1538.6</ele>
        <time>2016-10-16T08:06:47Z</time>
      </trkpt>
      <trkpt lat="42.99674" lon="0.0745">
        <ele>1539.3</ele>
        <time>2016-10-16T08:08:34Z</time>
      </trkpt>
      <trkpt lat="42.99674" lon="0.07449">
        <ele>1539.5</ele>
        <time>2016-10-16T08:08:35Z</time>
      </trkpt>
      <trkpt lat="42.9967" lon="0.07427">
        <ele>1543.7</ele>
        <time>2016-10-16T08:08:56Z</time>
      </trkpt>
      <trkpt lat="42.99666" lon="0.07416">
        <ele>1545.7</ele>
        <time>2016-10-16T08:09:07Z</time>
      </trkpt>
      <trkpt lat="42.99665" lon="0.07405">
        <ele>1547.3</ele>
        <time>2016-10-16T08:09:18Z</time>
      </trkpt>
      <trkpt lat="42.99662" lon="0.07394">
        <ele>1548.5</ele>
        <time>2016-10-16T08:09:27Z</time>
      </trkpt>
      <trkpt lat="42.99666" lon="0.07383">
        <ele>1549.5</ele>
        <time>2016-10-16T08:09:38Z</time>
      </trkpt>
      <trkpt lat="42.99666" lon="0.07383">
        <ele>1549.5</ele>
        <time>2016-10-16T08:09:39Z</time>
      </trkpt>
      <trkpt lat="42.99666" lon="0.0736">
        <ele>1555.4</ele>
        <time>2016-10-16T08:10:05Z</time>
      </trkpt>
      <trkpt lat="42.99668" lon="0.07348">
        <ele>1557.9</ele>
        <time>2016-10-16T08:10:20Z</time>
      </trkpt>
      <trkpt lat="42.9967" lon="0.07336">
        <ele>1561.1</ele>
        <time>2016-10-16T08:10:36Z</time>
      </trkpt>
      <trkpt lat="42.99665" lon="0.07327">
        <ele>1564</ele>
        <time>2016-10-16T08:10:51Z</time>
      </trkpt>
      <trkpt lat="42.99665" lon="0.07326">
        <ele>1564.2</ele>
        <time>2016-10-16T08:10:52Z</time>
      </trkpt>
      <trkpt lat="42.99662" lon="0.07304">
        <ele>1569.3</ele>
        <time>2016-10-16T08:11:22Z</time>
      </trkpt>
      <trkpt lat="42.99658" lon="0.07293">
        <ele>1573.7</ele>
        <time>2016-10-16T08:11:40Z</time>
      </trkpt>
      <trkpt lat="42.99654" lon="0.07282">
        <ele>1574.4</ele>
        <time>2016-10-16T08:11:52Z</time>
      </trkpt>
      <trkpt lat="42.99654" lon="0.07281">
        <ele>1574.3</ele>
        <time>2016-10-16T08:11:53Z</time>
      </trkpt>
      <trkpt lat="42.99662" lon="0.07263">
        <ele>1579.6</ele>
        <time>2016-10-16T08:12:42Z</time>
      </trkpt>
      <trkpt lat="42.99655" lon="0.07255">
        <ele>1580.9</ele>
        <time>2016-10-16T08:13:07Z</time>
      </trkpt>
      <trkpt lat="42.99655" lon="0.07254">
        <ele>1581.2</ele>
        <time>2016-10-16T08:13:08Z</time>
      </trkpt>
      <trkpt lat="42.99644" lon="0.07236">
        <ele>1585.4</ele>
        <time>2016-10-16T08:13:49Z</time>
      </trkpt>
      <trkpt lat="42.99641" lon="0.07225">
        <ele>1587</ele>
        <time>2016-10-16T08:14:02Z</time>
      </trkpt>
      <trkpt lat="42.99642" lon="0.07214">
        <ele>1589.2</ele>
        <time>2016-10-16T08:14:12Z</time>
      </trkpt>
      <trkpt lat="42.99642" lon="0.07213">
        <ele>1589.4</ele>
        <time>2016-10-16T08:14:13Z</time>
      </trkpt>
      <trkpt lat="42.99643" lon="0.07191">
        <ele>1591.9</ele>
        <time>2016-10-16T08:14:31Z</time>
      </trkpt>
      <trkpt lat="42.9964" lon="0.0718">
        <ele>1593.8</ele>
        <time>2016-10-16T08:14:41Z</time>
      </trkpt>
      <trkpt lat="42.99637" lon="0.07169">
        <ele>1595.3</ele>
        <time>2016-10-16T08:14:51Z</time>
      </trkpt>
      <trkpt lat="42.9963" lon="0.07162">
        <ele>1598.4</ele>
        <time>2016-10-16T08:15:04Z</time>
      </trkpt>
      <trkpt lat="42.99622" lon="0.07158">
        <ele>1600.1</ele>
        <time>2016-10-16T08:15:15Z</time>
      </trkpt>
      <trkpt lat="42.99621" lon="0.07157">
        <ele>1600.5</ele>
        <time>2016-10-16T08:15:16Z</time>
      </trkpt>
      <trkpt lat="42.99606" lon="0.07148">
        <ele>1603</ele>
        <time>2016-10-16T08:15:37Z</time>
      </trkpt>
      <trkpt lat="42.99598" lon="0.07143">
        <ele>1605.5</ele>
        <time>2016-10-16T08:15:51Z</time>
      </trkpt>
      <trkpt lat="42.99594" lon="0.07132">
        <ele>1608.9</ele>
        <time>2016-10-16T08:16:07Z</time>
      </trkpt>
      <trkpt lat="42.99589" lon="0.07123">
        <ele>1611</ele>
        <time>2016-10-16T08:16:22Z</time>
      </trkpt>
      <trkpt lat="42.99588" lon="0.07122">
        <ele>1611.1</ele>
        <time>2016-10-16T08:16:23Z</time>
      </trkpt>
      <trkpt lat="42.99577" lon="0.07106">
        <ele>1616.4</ele>
        <time>2016-10-16T08:16:57Z</time>
      </trkpt>
      <trkpt lat="42.99569" lon="0.071">
        <ele>1618.6</ele>
        <time>2016-10-16T08:17:10Z</time>
      </trkpt>
      <trkpt lat="42.9957" lon="0.07087">
        <ele>1621.8</ele>
        <time>2016-10-16T08:17:28Z</time>
      </trkpt>
      <trkpt lat="42.99569" lon="0.07087">
        <ele>1622.1</ele>
        <time>2016-10-16T08:17:29Z</time>
      </trkpt>
      <trkpt lat="42.99562" lon="0.07067">
        <ele>1630.5</ele>
        <time>2016-10-16T08:19:11Z</time>
      </trkpt>
      <trkpt lat="42.99562" lon="0.07065">
        <ele>1630.9</ele>
        <time>2016-10-16T08:19:12Z</time>
      </trkpt>
      <trkpt lat="42.99553" lon="0.07047">
        <ele>1635.5</ele>
        <time>2016-10-16T08:20:02Z</time>
      </trkpt>
      <trkpt lat="42.99557" lon="0.07036">
        <ele>1639.6</ele>
        <time>2016-10-16T08:20:26Z</time>
      </trkpt>
      <trkpt lat="42.99557" lon="0.07035">
        <ele>1639.7</ele>
        <time>2016-10-16T08:20:27Z</time>
      </trkpt>
      <trkpt lat="42.99549" lon="0.07016">
        <ele>1648</ele>
        <time>2016-10-16T08:21:03Z</time>
      </trkpt>
      <trkpt lat="42.99548" lon="0.07004">
        <ele>1654</ele>
        <time>2016-10-16T08:21:28Z</time>
      </trkpt>
      <trkpt lat="42.99548" lon="0.07003">
        <ele>1654.4</ele>
        <time>2016-10-16T08:21:29Z</time>
      </trkpt>
      <trkpt lat="42.9955" lon="0.06982">
        <ele>1661.3</ele>
        <time>2016-10-16T08:22:05Z</time>
      </trkpt>
      <trkpt lat="42.99548" lon="0.0697">
        <ele>1664.1</ele>
        <time>2016-10-16T08:22:20Z</time>
      </trkpt>
      <trkpt lat="42.99553" lon="0.06961">
        <ele>1670</ele>
        <time>2016-10-16T08:22:52Z</time>
      </trkpt>
      <trkpt lat="42.99554" lon="0.0696">
        <ele>1670.2</ele>
        <time>2016-10-16T08:22:53Z</time>
      </trkpt>
      <trkpt lat="42.9955" lon="0.06937">
        <ele>1679</ele>
        <time>2016-10-16T08:23:51Z</time>
      </trkpt>
      <trkpt lat="42.99551" lon="0.06925">
        <ele>1681.3</ele>
        <time>2016-10-16T08:24:27Z</time>
      </trkpt>
      <trkpt lat="42.99551" lon="0.06925">
        <ele>1681.1</ele>
        <time>2016-10-16T08:24:28Z</time>
      </trkpt>
      <trkpt lat="42.99547" lon="0.06903">
        <ele>1686.5</ele>
        <time>2016-10-16T08:25:00Z</time>
      </trkpt>
      <trkpt lat="42.99542" lon="0.06893">
        <ele>1688.8</ele>
        <time>2016-10-16T08:26:22Z</time>
      </trkpt>
      <trkpt lat="42.99542" lon="0.06892">
        <ele>1689.3</ele>
        <time>2016-10-16T08:26:23Z</time>
      </trkpt>
      <trkpt lat="42.99538" lon="0.0687">
        <ele>1697.7</ele>
        <time>2016-10-16T08:27:09Z</time>
      </trkpt>
      <trkpt lat="42.99536" lon="0.06859">
        <ele>1702</ele>
        <time>2016-10-16T08:27:24Z</time>
      </trkpt>
      <trkpt lat="42.99536" lon="0.06858">
        <ele>1702.2</ele>
        <time>2016-10-16T08:27:25Z</time>
      </trkpt>
      <trkpt lat="42.99528" lon="0.06839">
        <ele>1708.5</ele>
        <time>2016-10-16T08:28:04Z</time>
      </trkpt>
      <trkpt lat="42.99524" lon="0.06829">
        <ele>1711.2</ele>
        <time>2016-10-16T08:28:18Z</time>
      </trkpt>
      <trkpt lat="42.99523" lon="0.06816">
        <ele>1715.4</ele>
        <time>2016-10-16T08:28:36Z</time>
      </trkpt>
      <trkpt lat="42.99523" lon="0.06816">
        <ele>1715.9</ele>
        <time>2016-10-16T08:28:37Z</time>
      </trkpt>
      <trkpt lat="42.99515" lon="0.06796">
        <ele>1724.7</ele>
        <time>2016-10-16T08:29:40Z</time>
      </trkpt>
      <trkpt lat="42.99515" lon="0.06795">
        <ele>1724.6</ele>
        <time>2016-10-16T08:29:41Z</time>
      </trkpt>
      <trkpt lat="42.99511" lon="0.06774">
        <ele>1731.8</ele>
        <time>2016-10-16T08:30:25Z</time>
      </trkpt>
      <trkpt lat="42.99506" lon="0.06764">
        <ele>1737.4</ele>
        <time>2016-10-16T08:30:46Z</time>
      </trkpt>
      <trkpt lat="42.99506" lon="0.06764">
        <ele>1737.2</ele>
        <time>2016-10-16T08:30:47Z</time>
      </trkpt>
      <trkpt lat="42.99504" lon="0.06752">
        <ele>1738.8</ele>
        <time>2016-10-16T08:31:59Z</time>
      </trkpt>
      <trkpt lat="42.99506" lon="0.0674">
        <ele>1744.6</ele>
        <time>2016-10-16T08:33:04Z</time>
      </trkpt>
      <trkpt lat="42.99501" lon="0.06717">
        <ele>1751.9</ele>
        <time>2016-10-16T08:33:54Z</time>
      </trkpt>
      <trkpt lat="42.99502" lon="0.06706">
        <ele>1756.8</ele>
        <time>2016-10-16T08:34:20Z</time>
      </trkpt>
      <trkpt lat="42.99502" lon="0.06705">
        <ele>1757.2</ele>
        <time>2016-10-16T08:34:21Z</time>
      </trkpt>
      <trkpt lat="42.99496" lon="0.06685">
        <ele>1763.2</ele>
        <time>2016-10-16T08:34:58Z</time>
      </trkpt>
      <trkpt lat="42.99491" lon="0.06675">
        <ele>1768.1</ele>
        <time>2016-10-16T08:35:23Z</time>
      </trkpt>
      <trkpt lat="42.99491" lon="0.06675">
        <ele>1768.2</ele>
        <time>2016-10-16T08:35:24Z</time>
      </trkpt>
      <trkpt lat="42.9948" lon="0.06658">
        <ele>1777.2</ele>
        <time>2016-10-16T08:36:15Z</time>
      </trkpt>
      <trkpt lat="42.9948" lon="0.06646">
        <ele>1781.5</ele>
        <time>2016-10-16T08:36:35Z</time>
      </trkpt>
      <trkpt lat="42.99481" lon="0.06645">
        <ele>1781.9</ele>
        <time>2016-10-16T08:36:36Z</time>
      </trkpt>
      <trkpt lat="42.99485" lon="0.06623">
        <ele>1788.8</ele>
        <time>2016-10-16T08:37:27Z</time>
      </trkpt>
      <trkpt lat="42.99487" lon="0.06612">
        <ele>1789.9</ele>
        <time>2016-10-16T08:37:50Z</time>
      </trkpt>
      <trkpt lat="42.99488" lon="0.06611">
        <ele>1789.9</ele>
        <time>2016-10-16T08:37:51Z</time>
      </trkpt>
      <trkpt lat="42.99494" lon="0.06632">
        <ele>1789.8</ele>
        <time>2016-10-16T08:38:39Z</time>
      </trkpt>
      <trkpt lat="42.9949" lon="0.06622">
        <ele>1789.5</ele>
        <time>2016-10-16T08:40:20Z</time>
      </trkpt>
      <trkpt lat="42.9949" lon="0.06622">
        <ele>1789.1</ele>
        <time>2016-10-16T08:40:21Z</time>
      </trkpt>
      <trkpt lat="42.99482" lon="0.06628">
        <ele>1791.6</ele>
        <time>2016-10-16T08:45:02Z</time>
      </trkpt>
      <trkpt lat="42.99466" lon="0.06618">
        <ele>1796.8</ele>
        <time>2016-10-16T08:45:31Z</time>
      </trkpt>
      <trkpt lat="42.99459" lon="0.06626">
        <ele>1801.4</ele>
        <time>2016-10-16T08:45:56Z</time>
      </trkpt>
      <trkpt lat="42.99455" lon="0.06636">
        <ele>1807.2</ele>
        <time>2016-10-16T08:46:27Z</time>
      </trkpt>
      <trkpt lat="42.99455" lon="0.06637">
        <ele>1807.1</ele>
        <time>2016-10-16T08:46:28Z</time>
      </trkpt>
      <trkpt lat="42.9944" lon="0.06649">
        <ele>1815.1</ele>
        <time>2016-10-16T08:47:19Z</time>
      </trkpt>
      <trkpt lat="42.99433" lon="0.06645">
        <ele>1817.9</ele>
        <time>2016-10-16T08:47:35Z</time>
      </trkpt>
      <trkpt lat="42.99432" lon="0.06645">
        <ele>1818.1</ele>
        <time>2016-10-16T08:47:36Z</time>
      </trkpt>
      <trkpt lat="42.99419" lon="0.06658">
        <ele>1831.5</ele>
        <time>2016-10-16T08:48:55Z</time>
      </trkpt>
      <trkpt lat="42.99418" lon="0.06657">
        <ele>1831.3</ele>
        <time>2016-10-16T08:48:56Z</time>
      </trkpt>
      <trkpt lat="42.99402" lon="0.06662">
        <ele>1840.3</ele>
        <time>2016-10-16T08:49:56Z</time>
      </trkpt>
      <trkpt lat="42.99401" lon="0.06662">
        <ele>1840.3</ele>
        <time>2016-10-16T08:49:57Z</time>
      </trkpt>
      <trkpt lat="42.99385" lon="0.06665">
        <ele>1850</ele>
        <time>2016-10-16T08:51:12Z</time>
      </trkpt>
      <trkpt lat="42.99384" lon="0.06666">
        <ele>1849.8</ele>
        <time>2016-10-16T08:51:13Z</time>
      </trkpt>
      <trkpt lat="42.99367" lon="0.06664">
        <ele>1858.7</ele>
        <time>2016-10-16T08:51:59Z</time>
      </trkpt>
      <trkpt lat="42.99358" lon="0.06663">
        <ele>1863.8</ele>
        <time>2016-10-16T08:52:31Z</time>
      </trkpt>
      <trkpt lat="42.99358" lon="0.06663">
        <ele>1864.1</ele>
        <time>2016-10-16T08:52:32Z</time>
      </trkpt>
      <trkpt lat="42.99342" lon="0.0667">
        <ele>1873.5</ele>
        <time>2016-10-16T08:53:33Z</time>
      </trkpt>
      <trkpt lat="42.99342" lon="0.0667">
        <ele>1873.8</ele>
        <time>2016-10-16T08:53:34Z</time>
      </trkpt>
      <trkpt lat="42.99327" lon="0.06678">
        <ele>1883.8</ele>
        <time>2016-10-16T08:54:36Z</time>
      </trkpt>
      <trkpt lat="42.99327" lon="0.06678">
        <ele>1884.3</ele>
        <time>2016-10-16T08:54:37Z</time>
      </trkpt>
      <trkpt lat="42.99311" lon="0.06682">
        <ele>1893.7</ele>
        <time>2016-10-16T08:55:37Z</time>
      </trkpt>
      <trkpt lat="42.9931" lon="0.06681">
        <ele>1893.9</ele>
        <time>2016-10-16T08:55:38Z</time>
      </trkpt>
      <trkpt lat="42.99295" lon="0.06693">
        <ele>1900.5</ele>
        <time>2016-10-16T08:56:54Z</time>
      </trkpt>
      <trkpt lat="42.99295" lon="0.06693">
        <ele>1901</ele>
        <time>2016-10-16T08:56:55Z</time>
      </trkpt>
      <trkpt lat="42.99278" lon="0.06699">
        <ele>1911.6</ele>
        <time>2016-10-16T08:58:05Z</time>
      </trkpt>
      <trkpt lat="42.99278" lon="0.06698">
        <ele>1911.7</ele>
        <time>2016-10-16T08:58:06Z</time>
      </trkpt>
      <trkpt lat="42.99261" lon="0.06698">
        <ele>1917</ele>
        <time>2016-10-16T08:58:54Z</time>
      </trkpt>
      <trkpt lat="42.99252" lon="0.06698">
        <ele>1921.6</ele>
        <time>2016-10-16T08:59:15Z</time>
      </trkpt>
      <trkpt lat="42.99252" lon="0.06697">
        <ele>1921.7</ele>
        <time>2016-10-16T08:59:16Z</time>
      </trkpt>
      <trkpt lat="42.99235" lon="0.06696">
        <ele>1927.5</ele>
        <time>2016-10-16T08:59:57Z</time>
      </trkpt>
      <trkpt lat="42.99226" lon="0.06696">
        <ele>1930.6</ele>
        <time>2016-10-16T09:00:47Z</time>
      </trkpt>
      <trkpt lat="42.99226" lon="0.06696">
        <ele>1930.3</ele>
        <time>2016-10-16T09:00:48Z</time>
      </trkpt>
      <trkpt lat="42.99217" lon="0.06695">
        <ele>1935.6</ele>
        <time>2016-10-16T09:01:56Z</time>
      </trkpt>
      <trkpt lat="42.992" lon="0.06694">
        <ele>1941.7</ele>
        <time>2016-10-16T09:02:28Z</time>
      </trkpt>
      <trkpt lat="42.99192" lon="0.06692">
        <ele>1943.8</ele>
        <time>2016-10-16T09:02:41Z</time>
      </trkpt>
      <trkpt lat="42.99183" lon="0.0669">
        <ele>1946</ele>
        <time>2016-10-16T09:02:57Z</time>
      </trkpt>
      <trkpt lat="42.99183" lon="0.06691">
        <ele>1946</ele>
        <time>2016-10-16T09:02:58Z</time>
      </trkpt>
      <trkpt lat="42.99167" lon="0.06685">
        <ele>1950.1</ele>
        <time>2016-10-16T09:03:22Z</time>
      </trkpt>
      <trkpt lat="42.9916" lon="0.06692">
        <ele>1954.1</ele>
        <time>2016-10-16T09:03:40Z</time>
      </trkpt>
      <trkpt lat="42.99156" lon="0.06703">
        <ele>1955.5</ele>
        <time>2016-10-16T09:03:54Z</time>
      </trkpt>
      <trkpt lat="42.99153" lon="0.06714">
        <ele>1958.2</ele>
        <time>2016-10-16T09:04:08Z</time>
      </trkpt>
      <trkpt lat="42.99153" lon="0.06715">
        <ele>1958</ele>
        <time>2016-10-16T09:04:09Z</time>
      </trkpt>
      <trkpt lat="42.99145" lon="0.06734">
        <ele>1961.4</ele>
        <time>2016-10-16T09:04:39Z</time>
      </trkpt>
      <trkpt lat="42.99139" lon="0.06743">
        <ele>1962.3</ele>
        <time>2016-10-16T09:04:54Z</time>
      </trkpt>
      <trkpt lat="42.99132" lon="0.06748">
        <ele>1964.5</ele>
        <time>2016-10-16T09:05:10Z</time>
      </trkpt>
      <trkpt lat="42.99131" lon="0.06748">
        <ele>1964.5</ele>
        <time>2016-10-16T09:05:11Z</time>
      </trkpt>
      <trkpt lat="42.99117" lon="0.06737">
        <ele>1967.2</ele>
        <time>2016-10-16T09:05:40Z</time>
      </trkpt>
      <trkpt lat="42.99108" lon="0.06735">
        <ele>1970.3</ele>
        <time>2016-10-16T09:06:19Z</time>
      </trkpt>
      <trkpt lat="42.99108" lon="0.06735">
        <ele>1970.6</ele>
        <time>2016-10-16T09:06:20Z</time>
      </trkpt>
      <trkpt lat="42.99092" lon="0.06735">
        <ele>1975.3</ele>
        <time>2016-10-16T09:06:56Z</time>
      </trkpt>
      <trkpt lat="42.99084" lon="0.06731">
        <ele>1976.2</ele>
        <time>2016-10-16T09:07:08Z</time>
      </trkpt>
      <trkpt lat="42.99079" lon="0.06721">
        <ele>1978.1</ele>
        <time>2016-10-16T09:07:20Z</time>
      </trkpt>
      <trkpt lat="42.99078" lon="0.0671">
        <ele>1979.4</ele>
        <time>2016-10-16T09:07:31Z</time>
      </trkpt>
      <trkpt lat="42.99078" lon="0.06709">
        <ele>1979.6</ele>
        <time>2016-10-16T09:07:32Z</time>
      </trkpt>
      <trkpt lat="42.99071" lon="0.06688">
        <ele>1981.7</ele>
        <time>2016-10-16T09:07:57Z</time>
      </trkpt>
      <trkpt lat="42.9907" lon="0.06677">
        <ele>1981.9</ele>
        <time>2016-10-16T09:08:08Z</time>
      </trkpt>
      <trkpt lat="42.99068" lon="0.06665">
        <ele>1982.5</ele>
        <time>2016-10-16T09:08:18Z</time>
      </trkpt>
      <trkpt lat="42.99068" lon="0.06653">
        <ele>1984.1</ele>
        <time>2016-10-16T09:08:26Z</time>
      </trkpt>
      <trkpt lat="42.99064" lon="0.06642">
        <ele>1986.2</ele>
        <time>2016-10-16T09:08:39Z</time>
      </trkpt>
      <trkpt lat="42.99064" lon="0.06642">
        <ele>1986.3</ele>
        <time>2016-10-16T09:08:40Z</time>
      </trkpt>
      <trkpt lat="42.9906" lon="0.06618">
        <ele>1991.8</ele>
        <time>2016-10-16T09:09:15Z</time>
      </trkpt>
      <trkpt lat="42.99057" lon="0.06607">
        <ele>1994.7</ele>
        <time>2016-10-16T09:09:29Z</time>
      </trkpt>
      <trkpt lat="42.99055" lon="0.06596">
        <ele>1996.7</ele>
        <time>2016-10-16T09:09:41Z</time>
      </trkpt>
      <trkpt lat="42.99055" lon="0.06595">
        <ele>1996.8</ele>
        <time>2016-10-16T09:09:42Z</time>
      </trkpt>
      <trkpt lat="42.99046" lon="0.06576">
        <ele>2004.5</ele>
        <time>2016-10-16T09:10:14Z</time>
      </trkpt>
      <trkpt lat="42.99041" lon="0.06566">
        <ele>2009.1</ele>
        <time>2016-10-16T09:10:39Z</time>
      </trkpt>
      <trkpt lat="42.99033" lon="0.06562">
        <ele>2011.2</ele>
        <time>2016-10-16T09:11:30Z</time>
      </trkpt>
      <trkpt lat="42.99033" lon="0.06561">
        <ele>2011.3</ele>
        <time>2016-10-16T09:11:31Z</time>
      </trkpt>
      <trkpt lat="42.99018" lon="0.06553">
        <ele>2016.4</ele>
        <time>2016-10-16T09:11:57Z</time>
      </trkpt>
      <trkpt lat="42.99012" lon="0.06544">
        <ele>2022.7</ele>
        <time>2016-10-16T09:12:20Z</time>
      </trkpt>
      <trkpt lat="42.99008" lon="0.06534">
        <ele>2028.1</ele>
        <time>2016-10-16T09:12:44Z</time>
      </trkpt>
      <trkpt lat="42.99008" lon="0.06533">
        <ele>2028.2</ele>
        <time>2016-10-16T09:12:45Z</time>
      </trkpt>
      <trkpt lat="42.99001" lon="0.06513">
        <ele>2038.3</ele>
        <time>2016-10-16T09:13:49Z</time>
      </trkpt>
      <trkpt lat="42.99001" lon="0.06512">
        <ele>2038.3</ele>
        <time>2016-10-16T09:13:50Z</time>
      </trkpt>
      <trkpt lat="42.98995" lon="0.06505">
        <ele>2047.7</ele>
        <time>2016-10-16T09:17:07Z</time>
      </trkpt>
      <trkpt lat="42.98994" lon="0.06506">
        <ele>2047.7</ele>
        <time>2016-10-16T09:17:08Z</time>
      </trkpt>
      <trkpt lat="42.98978" lon="0.06512">
        <ele>2050.3</ele>
        <time>2016-10-16T09:17:48Z</time>
      </trkpt>
      <trkpt lat="42.9897" lon="0.06516">
        <ele>2049.7</ele>
        <time>2016-10-16T09:18:05Z</time>
      </trkpt>
      <trkpt lat="42.98964" lon="0.06524">
        <ele>2051.2</ele>
        <time>2016-10-16T09:18:23Z</time>
      </trkpt>
      <trkpt lat="42.98963" lon="0.06525">
        <ele>2051.8</ele>
        <time>2016-10-16T09:18:24Z</time>
      </trkpt>
      <trkpt lat="42.98951" lon="0.0654">
        <ele>2056.2</ele>
        <time>2016-10-16T09:18:58Z</time>
      </trkpt>
      <trkpt lat="42.98946" lon="0.0655">
        <ele>2057.9</ele>
        <time>2016-10-16T09:19:25Z</time>
      </trkpt>
      <trkpt lat="42.98945" lon="0.0655">
        <ele>2057.7</ele>
        <time>2016-10-16T09:19:26Z</time>
      </trkpt>
      <trkpt lat="42.98935" lon="0.06567">
        <ele>2058.8</ele>
        <time>2016-10-16T09:20:32Z</time>
      </trkpt>
      <trkpt lat="42.98934" lon="0.06567">
        <ele>2058.9</ele>
        <time>2016-10-16T09:20:33Z</time>
      </trkpt>
      <trkpt lat="42.98919" lon="0.06573">
        <ele>2081.4</ele>
        <time>2016-10-16T09:20:52Z</time>
      </trkpt>
      <trkpt lat="42.98911" lon="0.0658">
        <ele>2081.7</ele>
        <time>2016-10-16T09:21:00Z</time>
      </trkpt>
      <trkpt lat="42.98905" lon="0.06586">
        <ele>2082</ele>
        <time>2016-10-16T09:21:07Z</time>
      </trkpt>
      <trkpt lat="42.98897" lon="0.0659">
        <ele>2082.4</ele>
        <time>2016-10-16T09:21:14Z</time>
      </trkpt>
      <trkpt lat="42.98891" lon="0.06596">
        <ele>2082.5</ele>
        <time>2016-10-16T09:21:22Z</time>
      </trkpt>
      <trkpt lat="42.98884" lon="0.06604">
        <ele>2083.6</ele>
        <time>2016-10-16T09:21:31Z</time>
      </trkpt>
      <trkpt lat="42.98878" lon="0.06612">
        <ele>2084.8</ele>
        <time>2016-10-16T09:21:40Z</time>
      </trkpt>
      <trkpt lat="42.98878" lon="0.06613">
        <ele>2084.7</ele>
        <time>2016-10-16T09:21:41Z</time>
      </trkpt>
      <trkpt lat="42.98866" lon="0.06629">
        <ele>2089.8</ele>
        <time>2016-10-16T09:22:06Z</time>
      </trkpt>
      <trkpt lat="42.9886" lon="0.06637">
        <ele>2093.2</ele>
        <time>2016-10-16T09:22:20Z</time>
      </trkpt>
      <trkpt lat="42.98852" lon="0.06642">
        <ele>2097.2</ele>
        <time>2016-10-16T09:22:35Z</time>
      </trkpt>
      <trkpt lat="42.98845" lon="0.06649">
        <ele>2101.2</ele>
        <time>2016-10-16T09:22:53Z</time>
      </trkpt>
      <trkpt lat="42.98844" lon="0.06648">
        <ele>2101.5</ele>
        <time>2016-10-16T09:22:54Z</time>
      </trkpt>
      <trkpt lat="42.98831" lon="0.06664">
        <ele>2109.2</ele>
        <time>2016-10-16T09:23:57Z</time>
      </trkpt>
      <trkpt lat="42.98831" lon="0.06664">
        <ele>2109.3</ele>
        <time>2016-10-16T09:23:58Z</time>
      </trkpt>
      <trkpt lat="42.98816" lon="0.06675">
        <ele>2118.8</ele>
        <time>2016-10-16T09:25:42Z</time>
      </trkpt>
      <trkpt lat="42.98816" lon="0.06675">
        <ele>2118.9</ele>
        <time>2016-10-16T09:25:43Z</time>
      </trkpt>
      <trkpt lat="42.98802" lon="0.0669">
        <ele>2129.3</ele>
        <time>2016-10-16T09:26:43Z</time>
      </trkpt>
      <trkpt lat="42.98802" lon="0.0669">
        <ele>2129.4</ele>
        <time>2016-10-16T09:26:44Z</time>
      </trkpt>
      <trkpt lat="42.98787" lon="0.06703">
        <ele>2143.7</ele>
        <time>2016-10-16T09:28:11Z</time>
      </trkpt>
      <trkpt lat="42.98787" lon="0.06703">
        <ele>2143.8</ele>
        <time>2016-10-16T09:28:12Z</time>
      </trkpt>
      <trkpt lat="42.98778" lon="0.06699">
        <ele>2145.5</ele>
        <time>2016-10-16T09:30:06Z</time>
      </trkpt>
      <trkpt lat="42.98762" lon="0.06694">
        <ele>2149.2</ele>
        <time>2016-10-16T09:30:36Z</time>
      </trkpt>
      <trkpt lat="42.98754" lon="0.06693">
        <ele>2147.5</ele>
        <time>2016-10-16T09:30:45Z</time>
      </trkpt>
      <trkpt lat="42.98746" lon="0.06697">
        <ele>2146.9</ele>
        <time>2016-10-16T09:30:55Z</time>
      </trkpt>
      <trkpt lat="42.98738" lon="0.06703">
        <ele>2147.6</ele>
        <time>2016-10-16T09:31:11Z</time>
      </trkpt>
      <trkpt lat="42.98738" lon="0.06703">
        <ele>2147.5</ele>
        <time>2016-10-16T09:31:12Z</time>
      </trkpt>
      <trkpt lat="42.98723" lon="0.06712">
        <ele>2152</ele>
        <time>2016-10-16T09:31:34Z</time>
      </trkpt>
      <trkpt lat="42.98714" lon="0.06715">
        <ele>2152.6</ele>
        <time>2016-10-16T09:32:13Z</time>
      </trkpt>
      <trkpt lat="42.98714" lon="0.06715">
        <ele>2152.5</ele>
        <time>2016-10-16T09:32:14Z</time>
      </trkpt>
      <trkpt lat="42.98705" lon="0.06719">
        <ele>2152.7</ele>
        <time>2016-10-16T09:33:54Z</time>
      </trkpt>
      <trkpt lat="42.9869" lon="0.06729">
        <ele>2155.4</ele>
        <time>2016-10-16T09:34:09Z</time>
      </trkpt>
      <trkpt lat="42.98682" lon="0.06732">
        <ele>2154.3</ele>
        <time>2016-10-16T09:34:17Z</time>
      </trkpt>
      <trkpt lat="42.98675" lon="0.06737">
        <ele>2157</ele>
        <time>2016-10-16T09:34:25Z</time>
      </trkpt>
      <trkpt lat="42.98667" lon="0.06742">
        <ele>2158.7</ele>
        <time>2016-10-16T09:34:34Z</time>
      </trkpt>
      <trkpt lat="42.9866" lon="0.06746">
        <ele>2160</ele>
        <time>2016-10-16T09:34:42Z</time>
      </trkpt>
      <trkpt lat="42.98651" lon="0.06748">
        <ele>2161.6</ele>
        <time>2016-10-16T09:34:51Z</time>
      </trkpt>
      <trkpt lat="42.98643" lon="0.06746">
        <ele>2163.2</ele>
        <time>2016-10-16T09:35:01Z</time>
      </trkpt>
      <trkpt lat="42.98642" lon="0.06746">
        <ele>2163.3</ele>
        <time>2016-10-16T09:35:02Z</time>
      </trkpt>
      <trkpt lat="42.98627" lon="0.06754">
        <ele>2169.8</ele>
        <time>2016-10-16T09:35:30Z</time>
      </trkpt>
      <trkpt lat="42.98618" lon="0.06755">
        <ele>2172.5</ele>
        <time>2016-10-16T09:35:47Z</time>
      </trkpt>
      <trkpt lat="42.98611" lon="0.06763">
        <ele>2178.6</ele>
        <time>2016-10-16T09:36:17Z</time>
      </trkpt>
      <trkpt lat="42.98611" lon="0.06763">
        <ele>2178.9</ele>
        <time>2016-10-16T09:36:18Z</time>
      </trkpt>
      <trkpt lat="42.98595" lon="0.0677">
        <ele>2189.1</ele>
        <time>2016-10-16T09:37:24Z</time>
      </trkpt>
      <trkpt lat="42.98594" lon="0.0677">
        <ele>2189.3</ele>
        <time>2016-10-16T09:37:25Z</time>
      </trkpt>
      <trkpt lat="42.98585" lon="0.06784">
        <ele>2200.5</ele>
        <time>2016-10-16T09:38:35Z</time>
      </trkpt>
      <trkpt lat="42.98585" lon="0.06785">
        <ele>2200.8</ele>
        <time>2016-10-16T09:38:36Z</time>
      </trkpt>
      <trkpt lat="42.98569" lon="0.06793">
        <ele>2210</ele>
        <time>2016-10-16T09:39:39Z</time>
      </trkpt>
      <trkpt lat="42.98569" lon="0.06793">
        <ele>2210.6</ele>
        <time>2016-10-16T09:39:40Z</time>
      </trkpt>
      <trkpt lat="42.98557" lon="0.06807">
        <ele>2217.9</ele>
        <time>2016-10-16T09:41:02Z</time>
      </trkpt>
      <trkpt lat="42.98557" lon="0.06807">
        <ele>2218.5</ele>
        <time>2016-10-16T09:41:03Z</time>
      </trkpt>
      <trkpt lat="42.9854" lon="0.06814">
        <ele>2228.7</ele>
        <time>2016-10-16T09:42:17Z</time>
      </trkpt>
      <trkpt lat="42.98539" lon="0.06814">
        <ele>2228.7</ele>
        <time>2016-10-16T09:42:18Z</time>
      </trkpt>
      <trkpt lat="42.98523" lon="0.0682">
        <ele>2234.7</ele>
        <time>2016-10-16T09:43:03Z</time>
      </trkpt>
      <trkpt lat="42.98514" lon="0.06819">
        <ele>2235.1</ele>
        <time>2016-10-16T09:44:11Z</time>
      </trkpt>
      <trkpt lat="42.98514" lon="0.06818">
        <ele>2235.1</ele>
        <time>2016-10-16T09:44:12Z</time>
      </trkpt>
      <trkpt lat="42.98497" lon="0.0682">
        <ele>2243.8</ele>
        <time>2016-10-16T09:45:00Z</time>
      </trkpt>
      <trkpt lat="42.98488" lon="0.0682">
        <ele>2246.2</ele>
        <time>2016-10-16T09:45:31Z</time>
      </trkpt>
      <trkpt lat="42.98488" lon="0.0682">
        <ele>2246.5</ele>
        <time>2016-10-16T09:45:32Z</time>
      </trkpt>
      <trkpt lat="42.98471" lon="0.06825">
        <ele>2254.4</ele>
        <time>2016-10-16T09:46:41Z</time>
      </trkpt>
      <trkpt lat="42.98471" lon="0.06825">
        <ele>2254.6</ele>
        <time>2016-10-16T09:46:42Z</time>
      </trkpt>
      <trkpt lat="42.98462" lon="0.06835">
        <ele>2266</ele>
        <time>2016-10-16T09:48:14Z</time>
      </trkpt>
      <trkpt lat="42.98462" lon="0.06835">
        <ele>2266.1</ele>
        <time>2016-10-16T09:48:15Z</time>
      </trkpt>
      <trkpt lat="42.98447" lon="0.06845">
        <ele>2273.6</ele>
        <time>2016-10-16T09:49:26Z</time>
      </trkpt>
      <trkpt lat="42.98446" lon="0.06845">
        <ele>2273.9</ele>
        <time>2016-10-16T09:49:27Z</time>
      </trkpt>
      <trkpt lat="42.9843" lon="0.0685">
        <ele>2280.5</ele>
        <time>2016-10-16T09:50:23Z</time>
      </trkpt>
      <trkpt lat="42.98421" lon="0.06854">
        <ele>2285.6</ele>
        <time>2016-10-16T09:50:51Z</time>
      </trkpt>
      <trkpt lat="42.98421" lon="0.06854">
        <ele>2285.5</ele>
        <time>2016-10-16T09:50:52Z</time>
      </trkpt>
      <trkpt lat="42.98404" lon="0.06855">
        <ele>2294.2</ele>
        <time>2016-10-16T09:52:16Z</time>
      </trkpt>
      <trkpt lat="42.98404" lon="0.06855">
        <ele>2294.6</ele>
        <time>2016-10-16T09:52:17Z</time>
      </trkpt>
      <trkpt lat="42.98387" lon="0.06853">
        <ele>2300.8</ele>
        <time>2016-10-16T09:53:10Z</time>
      </trkpt>
      <trkpt lat="42.98378" lon="0.06851">
        <ele>2303.9</ele>
        <time>2016-10-16T09:53:49Z</time>
      </trkpt>
      <trkpt lat="42.98377" lon="0.06851">
        <ele>2304.1</ele>
        <time>2016-10-16T09:53:50Z</time>
      </trkpt>
      <trkpt lat="42.98362" lon="0.06855">
        <ele>2308.1</ele>
        <time>2016-10-16T09:54:28Z</time>
      </trkpt>
      <trkpt lat="42.98354" lon="0.0686">
        <ele>2309.8</ele>
        <time>2016-10-16T09:54:46Z</time>
      </trkpt>
      <trkpt lat="42.98347" lon="0.06867">
        <ele>2314.5</ele>
        <time>2016-10-16T09:55:54Z</time>
      </trkpt>
      <trkpt lat="42.98346" lon="0.06868">
        <ele>2314.6</ele>
        <time>2016-10-16T09:55:55Z</time>
      </trkpt>
      <trkpt lat="42.98355" lon="0.06874">
        <ele>2318.2</ele>
        <time>2016-10-16T09:57:22Z</time>
      </trkpt>
      <trkpt lat="42.98369" lon="0.06884">
        <ele>2324</ele>
        <time>2016-10-16T09:58:54Z</time>
      </trkpt>
      <trkpt lat="42.98369" lon="0.06884">
        <ele>2324</ele>
        <time>2016-10-16T09:58:55Z</time>
      </trkpt>
      <trkpt lat="42.98362" lon="0.06876">
        <ele>2320.2</ele>
        <time>2016-10-16T10:01:54Z</time>
      </trkpt>
      <trkpt lat="42.98346" lon="0.06868">
        <ele>2316.2</ele>
        <time>2016-10-16T10:03:22Z</time>
      </trkpt>
      <trkpt lat="42.98346" lon="0.06868">
        <ele>2316.2</ele>
        <time>2016-10-16T10:03:23Z</time>
      </trkpt>
      <trkpt lat="42.98358" lon="0.06852">
        <ele>2307.1</ele>
        <time>2016-10-16T10:04:29Z</time>
      </trkpt>
      <trkpt lat="42.98358" lon="0.06852">
        <ele>2307.1</ele>
        <time>2016-10-16T10:04:30Z</time>
      </trkpt>
      <trkpt lat="42.98374" lon="0.06846">
        <ele>2302.6</ele>
        <time>2016-10-16T10:05:31Z</time>
      </trkpt>
      <trkpt lat="42.98374" lon="0.06846">
        <ele>2302.9</ele>
        <time>2016-10-16T10:05:32Z</time>
      </trkpt>
      <trkpt lat="42.98391" lon="0.06851">
        <ele>2298.6</ele>
        <time>2016-10-16T10:06:25Z</time>
      </trkpt>
      <trkpt lat="42.984" lon="0.06852">
        <ele>2295.1</ele>
        <time>2016-10-16T10:07:04Z</time>
      </trkpt>
      <trkpt lat="42.984" lon="0.06851">
        <ele>2294.8</ele>
        <time>2016-10-16T10:07:05Z</time>
      </trkpt>
      <trkpt lat="42.98417" lon="0.06851">
        <ele>2288.2</ele>
        <time>2016-10-16T10:07:48Z</time>
      </trkpt>
      <trkpt lat="42.98426" lon="0.0685">
        <ele>2284.1</ele>
        <time>2016-10-16T10:08:08Z</time>
      </trkpt>
      <trkpt lat="42.98426" lon="0.0685">
        <ele>2283.8</ele>
        <time>2016-10-16T10:08:09Z</time>
      </trkpt>
      <trkpt lat="42.98442" lon="0.06843">
        <ele>2275</ele>
        <time>2016-10-16T10:09:17Z</time>
      </trkpt>
      <trkpt lat="42.98443" lon="0.06843">
        <ele>2274.9</ele>
        <time>2016-10-16T10:09:18Z</time>
      </trkpt>
      <trkpt lat="42.98459" lon="0.06837">
        <ele>2266.8</ele>
        <time>2016-10-16T10:10:07Z</time>
      </trkpt>
      <trkpt lat="42.9846" lon="0.06825">
        <ele>2259.1</ele>
        <time>2016-10-16T10:11:17Z</time>
      </trkpt>
      <trkpt lat="42.9846" lon="0.06825">
        <ele>2259</ele>
        <time>2016-10-16T10:11:18Z</time>
      </trkpt>
      <trkpt lat="42.98476" lon="0.06817">
        <ele>2250.1</ele>
        <time>2016-10-16T10:12:12Z</time>
      </trkpt>
      <trkpt lat="42.98484" lon="0.06814">
        <ele>2247</ele>
        <time>2016-10-16T10:12:33Z</time>
      </trkpt>
      <trkpt lat="42.98485" lon="0.06815">
        <ele>2246.4</ele>
        <time>2016-10-16T10:12:34Z</time>
      </trkpt>
      <trkpt lat="42.98501" lon="0.06814">
        <ele>2237.8</ele>
        <time>2016-10-16T10:13:06Z</time>
      </trkpt>
      <trkpt lat="42.9851" lon="0.06814">
        <ele>2236</ele>
        <time>2016-10-16T10:13:19Z</time>
      </trkpt>
      <trkpt lat="42.98518" lon="0.06813">
        <ele>2233.3</ele>
        <time>2016-10-16T10:13:35Z</time>
      </trkpt>
      <trkpt lat="42.98519" lon="0.06813">
        <ele>2233.4</ele>
        <time>2016-10-16T10:13:36Z</time>
      </trkpt>
      <trkpt lat="42.98536" lon="0.06813">
        <ele>2229.4</ele>
        <time>2016-10-16T10:14:12Z</time>
      </trkpt>
      <trkpt lat="42.98545" lon="0.06814">
        <ele>2226.9</ele>
        <time>2016-10-16T10:14:47Z</time>
      </trkpt>
      <trkpt lat="42.98545" lon="0.06814">
        <ele>2226.8</ele>
        <time>2016-10-16T10:14:48Z</time>
      </trkpt>
      <trkpt lat="42.98561" lon="0.06806">
        <ele>2215.9</ele>
        <time>2016-10-16T10:15:52Z</time>
      </trkpt>
      <trkpt lat="42.98562" lon="0.06805">
        <ele>2215.7</ele>
        <time>2016-10-16T10:15:53Z</time>
      </trkpt>
      <trkpt lat="42.98574" lon="0.0679">
        <ele>2205</ele>
        <time>2016-10-16T10:17:08Z</time>
      </trkpt>
      <trkpt lat="42.98574" lon="0.0679">
        <ele>2205.1</ele>
        <time>2016-10-16T10:17:09Z</time>
      </trkpt>
      <trkpt lat="42.98578" lon="0.06779">
        <ele>2194.9</ele>
        <time>2016-10-16T10:18:16Z</time>
      </trkpt>
      <trkpt lat="42.98593" lon="0.0677">
        <ele>2188</ele>
        <time>2016-10-16T10:19:01Z</time>
      </trkpt>
      <trkpt lat="42.98602" lon="0.06769">
        <ele>2182.8</ele>
        <time>2016-10-16T10:19:32Z</time>
      </trkpt>
      <trkpt lat="42.98602" lon="0.0677">
        <ele>2182.6</ele>
        <time>2016-10-16T10:19:33Z</time>
      </trkpt>
      <trkpt lat="42.98616" lon="0.06759">
        <ele>2171.4</ele>
        <time>2016-10-16T10:20:44Z</time>
      </trkpt>
      <trkpt lat="42.98617" lon="0.06758">
        <ele>2171.4</ele>
        <time>2016-10-16T10:20:45Z</time>
      </trkpt>
      <trkpt lat="42.98632" lon="0.06748">
        <ele>2164.6</ele>
        <time>2016-10-16T10:21:25Z</time>
      </trkpt>
      <trkpt lat="42.98641" lon="0.06748">
        <ele>2163</ele>
        <time>2016-10-16T10:21:37Z</time>
      </trkpt>
      <trkpt lat="42.9865" lon="0.06749">
        <ele>2160.1</ele>
        <time>2016-10-16T10:21:55Z</time>
      </trkpt>
      <trkpt lat="42.9865" lon="0.06749">
        <ele>2160.1</ele>
        <time>2016-10-16T10:21:56Z</time>
      </trkpt>
      <trkpt lat="42.98666" lon="0.06743">
        <ele>2158.3</ele>
        <time>2016-10-16T10:22:32Z</time>
      </trkpt>
      <trkpt lat="42.98673" lon="0.06736">
        <ele>2157.3</ele>
        <time>2016-10-16T10:22:40Z</time>
      </trkpt>
      <trkpt lat="42.98681" lon="0.06733">
        <ele>2155.3</ele>
        <time>2016-10-16T10:22:48Z</time>
      </trkpt>
      <trkpt lat="42.98688" lon="0.06729">
        <ele>2154.3</ele>
        <time>2016-10-16T10:22:56Z</time>
      </trkpt>
      <trkpt lat="42.98689" lon="0.06728">
        <ele>2154.2</ele>
        <time>2016-10-16T10:22:57Z</time>
      </trkpt>
      <trkpt lat="42.98703" lon="0.06719">
        <ele>2151.4</ele>
        <time>2016-10-16T10:23:13Z</time>
      </trkpt>
      <trkpt lat="42.98711" lon="0.06714">
        <ele>2151.6</ele>
        <time>2016-10-16T10:23:20Z</time>
      </trkpt>
      <trkpt lat="42.98719" lon="0.0671">
        <ele>2151</ele>
        <time>2016-10-16T10:23:29Z</time>
      </trkpt>
      <trkpt lat="42.98726" lon="0.06705">
        <ele>2149.3</ele>
        <time>2016-10-16T10:23:41Z</time>
      </trkpt>
      <trkpt lat="42.98733" lon="0.067">
        <ele>2147.3</ele>
        <time>2016-10-16T10:23:51Z</time>
      </trkpt>
      <trkpt lat="42.98741" lon="0.06696">
        <ele>2148</ele>
        <time>2016-10-16T10:24:01Z</time>
      </trkpt>
      <trkpt lat="42.98742" lon="0.06696">
        <ele>2147.8</ele>
        <time>2016-10-16T10:24:02Z</time>
      </trkpt>
      <trkpt lat="42.98758" lon="0.06693">
        <ele>2146.3</ele>
        <time>2016-10-16T10:24:21Z</time>
      </trkpt>
      <trkpt lat="42.98767" lon="0.06692">
        <ele>2143.8</ele>
        <time>2016-10-16T10:24:57Z</time>
      </trkpt>
      <trkpt lat="42.98775" lon="0.06689">
        <ele>2140.4</ele>
        <time>2016-10-16T10:25:26Z</time>
      </trkpt>
      <trkpt lat="42.98776" lon="0.06688">
        <ele>2140.2</ele>
        <time>2016-10-16T10:25:27Z</time>
      </trkpt>
      <trkpt lat="42.98792" lon="0.06684">
        <ele>2130.9</ele>
        <time>2016-10-16T10:26:19Z</time>
      </trkpt>
      <trkpt lat="42.98801" lon="0.06683">
        <ele>2126.1</ele>
        <time>2016-10-16T10:26:39Z</time>
      </trkpt>
      <trkpt lat="42.98801" lon="0.06682">
        <ele>2125.9</ele>
        <time>2016-10-16T10:26:40Z</time>
      </trkpt>
      <trkpt lat="42.98816" lon="0.06674">
        <ele>2116.4</ele>
        <time>2016-10-16T10:27:25Z</time>
      </trkpt>
      <trkpt lat="42.98823" lon="0.06666">
        <ele>2110.9</ele>
        <time>2016-10-16T10:27:50Z</time>
      </trkpt>
      <trkpt lat="42.98823" lon="0.06666">
        <ele>2110.8</ele>
        <time>2016-10-16T10:27:51Z</time>
      </trkpt>
      <trkpt lat="42.98836" lon="0.0665">
        <ele>2102</ele>
        <time>2016-10-16T10:28:27Z</time>
      </trkpt>
      <trkpt lat="42.98844" lon="0.06646">
        <ele>2098.1</ele>
        <time>2016-10-16T10:28:42Z</time>
      </trkpt>
      <trkpt lat="42.98852" lon="0.06641">
        <ele>2096</ele>
        <time>2016-10-16T10:28:56Z</time>
      </trkpt>
      <trkpt lat="42.98853" lon="0.0664">
        <ele>2096.2</ele>
        <time>2016-10-16T10:28:57Z</time>
      </trkpt>
      <trkpt lat="42.98865" lon="0.06626">
        <ele>2089.1</ele>
        <time>2016-10-16T10:29:19Z</time>
      </trkpt>
      <trkpt lat="42.98872" lon="0.06619">
        <ele>2086.6</ele>
        <time>2016-10-16T10:29:27Z</time>
      </trkpt>
      <trkpt lat="42.98878" lon="0.06612">
        <ele>2084.4</ele>
        <time>2016-10-16T10:29:36Z</time>
      </trkpt>
      <trkpt lat="42.98885" lon="0.06604">
        <ele>2083.3</ele>
        <time>2016-10-16T10:29:44Z</time>
      </trkpt>
      <trkpt lat="42.98891" lon="0.06597">
        <ele>2080.6</ele>
        <time>2016-10-16T10:29:50Z</time>
      </trkpt>
      <trkpt lat="42.98899" lon="0.06592">
        <ele>2080.1</ele>
        <time>2016-10-16T10:29:57Z</time>
      </trkpt>
      <trkpt lat="42.989" lon="0.06591">
        <ele>2080.1</ele>
        <time>2016-10-16T10:29:58Z</time>
      </trkpt>
      <trkpt lat="42.98913" lon="0.06579">
        <ele>2078.4</ele>
        <time>2016-10-16T10:30:12Z</time>
      </trkpt>
      <trkpt lat="42.9892" lon="0.06574">
        <ele>2078</ele>
        <time>2016-10-16T10:30:21Z</time>
      </trkpt>
      <trkpt lat="42.98928" lon="0.06568">
        <ele>2076.4</ele>
        <time>2016-10-16T10:30:30Z</time>
      </trkpt>
      <trkpt lat="42.98935" lon="0.06561">
        <ele>2076.7</ele>
        <time>2016-10-16T10:30:37Z</time>
      </trkpt>
      <trkpt lat="42.9894" lon="0.06552">
        <ele>2073.2</ele>
        <time>2016-10-16T10:30:46Z</time>
      </trkpt>
      <trkpt lat="42.98945" lon="0.06543">
        <ele>2072.5</ele>
        <time>2016-10-16T10:30:58Z</time>
      </trkpt>
      <trkpt lat="42.98946" lon="0.06542">
        <ele>2072.5</ele>
        <time>2016-10-16T10:30:59Z</time>
      </trkpt>
      <trkpt lat="42.98959" lon="0.06529">
        <ele>2067</ele>
        <time>2016-10-16T10:31:41Z</time>
      </trkpt>
      <trkpt lat="42.98966" lon="0.06521">
        <ele>2066.4</ele>
        <time>2016-10-16T10:31:50Z</time>
      </trkpt>
      <trkpt lat="42.98973" lon="0.06517">
        <ele>2065.1</ele>
        <time>2016-10-16T10:32:00Z</time>
      </trkpt>
      <trkpt lat="42.98974" lon="0.06516">
        <ele>2065</ele>
        <time>2016-10-16T10:32:01Z</time>
      </trkpt>
      <trkpt lat="42.98989" lon="0.06511">
        <ele>2064.2</ele>
        <time>2016-10-16T10:32:19Z</time>
      </trkpt>
      <trkpt lat="42.98998" lon="0.06508">
        <ele>2057.3</ele>
        <time>2016-10-16T10:33:32Z</time>
      </trkpt>
      <trkpt lat="42.98998" lon="0.06507">
        <ele>2057.2</ele>
        <time>2016-10-16T10:33:33Z</time>
      </trkpt>
      <trkpt lat="42.99006" lon="0.06526">
        <ele>2048.8</ele>
        <time>2016-10-16T10:34:15Z</time>
      </trkpt>
      <trkpt lat="42.99008" lon="0.06537">
        <ele>2044.3</ele>
        <time>2016-10-16T10:34:26Z</time>
      </trkpt>
      <trkpt lat="42.99011" lon="0.06548">
        <ele>2041.5</ele>
        <time>2016-10-16T10:34:39Z</time>
      </trkpt>
      <trkpt lat="42.99012" lon="0.06549">
        <ele>2041.2</ele>
        <time>2016-10-16T10:34:40Z</time>
      </trkpt>
      <trkpt lat="42.99025" lon="0.06562">
        <ele>2036.4</ele>
        <time>2016-10-16T10:35:08Z</time>
      </trkpt>
      <trkpt lat="42.99032" lon="0.06567">
        <ele>2029.5</ele>
        <time>2016-10-16T10:35:24Z</time>
      </trkpt>
      <trkpt lat="42.99041" lon="0.06569">
        <ele>2025.6</ele>
        <time>2016-10-16T10:35:40Z</time>
      </trkpt>
      <trkpt lat="42.99041" lon="0.06569">
        <ele>2025.1</ele>
        <time>2016-10-16T10:35:41Z</time>
      </trkpt>
      <trkpt lat="42.99051" lon="0.06587">
        <ele>2017.3</ele>
        <time>2016-10-16T10:36:17Z</time>
      </trkpt>
      <trkpt lat="42.99053" lon="0.06599">
        <ele>2010.8</ele>
        <time>2016-10-16T10:36:29Z</time>
      </trkpt>
      <trkpt lat="42.99057" lon="0.06609">
        <ele>2011.2</ele>
        <time>2016-10-16T10:36:37Z</time>
      </trkpt>
      <trkpt lat="42.99059" lon="0.06621">
        <ele>2008.2</ele>
        <time>2016-10-16T10:36:46Z</time>
      </trkpt>
      <trkpt lat="42.9906" lon="0.06622">
        <ele>2008</ele>
        <time>2016-10-16T10:36:47Z</time>
      </trkpt>
      <trkpt lat="42.99064" lon="0.06643">
        <ele>2001.5</ele>
        <time>2016-10-16T10:37:05Z</time>
      </trkpt>
      <trkpt lat="42.99065" lon="0.06655">
        <ele>1999.6</ele>
        <time>2016-10-16T10:37:16Z</time>
      </trkpt>
      <trkpt lat="42.99067" lon="0.06667">
        <ele>1996.2</ele>
        <time>2016-10-16T10:37:26Z</time>
      </trkpt>
      <trkpt lat="42.99068" lon="0.06679">
        <ele>1995.2</ele>
        <time>2016-10-16T10:37:33Z</time>
      </trkpt>
      <trkpt lat="42.9907" lon="0.0669">
        <ele>1995.2</ele>
        <time>2016-10-16T10:37:40Z</time>
      </trkpt>
      <trkpt lat="42.99075" lon="0.067">
        <ele>1993.5</ele>
        <time>2016-10-16T10:37:46Z</time>
      </trkpt>
      <trkpt lat="42.99075" lon="0.06711">
        <ele>1992.4</ele>
        <time>2016-10-16T10:37:53Z</time>
      </trkpt>
      <trkpt lat="42.99075" lon="0.06713">
        <ele>1992.4</ele>
        <time>2016-10-16T10:37:54Z</time>
      </trkpt>
      <trkpt lat="42.99081" lon="0.06732">
        <ele>1991.4</ele>
        <time>2016-10-16T10:38:10Z</time>
      </trkpt>
      <trkpt lat="42.9909" lon="0.06735">
        <ele>1991.5</ele>
        <time>2016-10-16T10:38:21Z</time>
      </trkpt>
      <trkpt lat="42.99098" lon="0.06737">
        <ele>1990.2</ele>
        <time>2016-10-16T10:38:34Z</time>
      </trkpt>
      <trkpt lat="42.99096" lon="0.06749">
        <ele>1981.4</ele>
        <time>2016-10-16T10:39:04Z</time>
      </trkpt>
      <trkpt lat="42.99096" lon="0.06749">
        <ele>1981.4</ele>
        <time>2016-10-16T10:39:05Z</time>
      </trkpt>
      <trkpt lat="42.99105" lon="0.06754">
        <ele>1981</ele>
        <time>2016-10-16T10:40:40Z</time>
      </trkpt>
      <trkpt lat="42.99088" lon="0.0675">
        <ele>1980.8</ele>
        <time>2016-10-16T10:41:54Z</time>
      </trkpt>
      <trkpt lat="42.99087" lon="0.0675">
        <ele>1980.8</ele>
        <time>2016-10-16T10:41:55Z</time>
      </trkpt>
      <trkpt lat="42.99087" lon="0.06751">
        <ele>1980.6</ele>
        <time>2016-10-16T10:48:37Z</time>
      </trkpt>
      <trkpt lat="42.99088" lon="0.06751">
        <ele>1980.7</ele>
        <time>2016-10-16T10:48:38Z</time>
      </trkpt>
      <trkpt lat="42.99088" lon="0.06755">
        <ele>1979.8</ele>
        <time>2016-10-16T10:50:46Z</time>
      </trkpt>
      <trkpt lat="42.99087" lon="0.06755">
        <ele>1979.8</ele>
        <time>2016-10-16T10:50:47Z</time>
      </trkpt>
      <trkpt lat="42.99097" lon="0.06753">
        <ele>1980.3</ele>
        <time>2016-10-16T10:51:49Z</time>
      </trkpt>
      <trkpt lat="42.99096" lon="0.06753">
        <ele>1980.5</ele>
        <time>2016-10-16T10:53:46Z</time>
      </trkpt>
      <trkpt lat="42.99096" lon="0.06753">
        <ele>1980.6</ele>
        <time>2016-10-16T10:53:47Z</time>
      </trkpt>
      <trkpt lat="42.99087" lon="0.06753">
        <ele>1979.8</ele>
        <time>2016-10-16T10:56:11Z</time>
      </trkpt>
      <trkpt lat="42.99096" lon="0.06754">
        <ele>1980.9</ele>
        <time>2016-10-16T11:05:28Z</time>
      </trkpt>
      <trkpt lat="42.99104" lon="0.06747">
        <ele>1989.2</ele>
        <time>2016-10-16T11:24:08Z</time>
      </trkpt>
      <trkpt lat="42.99118" lon="0.06745">
        <ele>1986.8</ele>
        <time>2016-10-16T11:24:42Z</time>
      </trkpt>
      <trkpt lat="42.99126" lon="0.06748">
        <ele>1984.9</ele>
        <time>2016-10-16T11:24:51Z</time>
      </trkpt>
      <trkpt lat="42.99134" lon="0.06742">
        <ele>1980.8</ele>
        <time>2016-10-16T11:25:02Z</time>
      </trkpt>
      <trkpt lat="42.99141" lon="0.06735">
        <ele>1977.3</ele>
        <time>2016-10-16T11:25:11Z</time>
      </trkpt>
      <trkpt lat="42.99141" lon="0.06734">
        <ele>1977.3</ele>
        <time>2016-10-16T11:25:12Z</time>
      </trkpt>
      <trkpt lat="42.99152" lon="0.06717">
        <ele>1975.7</ele>
        <time>2016-10-16T11:25:29Z</time>
      </trkpt>
      <trkpt lat="42.99155" lon="0.06707">
        <ele>1972.7</ele>
        <time>2016-10-16T11:25:38Z</time>
      </trkpt>
      <trkpt lat="42.99159" lon="0.06696">
        <ele>1970</ele>
        <time>2016-10-16T11:25:48Z</time>
      </trkpt>
      <trkpt lat="42.99163" lon="0.06686">
        <ele>1967.6</ele>
        <time>2016-10-16T11:25:58Z</time>
      </trkpt>
      <trkpt lat="42.99171" lon="0.06688">
        <ele>1962.7</ele>
        <time>2016-10-16T11:26:09Z</time>
      </trkpt>
      <trkpt lat="42.9918" lon="0.06689">
        <ele>1961.6</ele>
        <time>2016-10-16T11:26:22Z</time>
      </trkpt>
      <trkpt lat="42.99181" lon="0.06689">
        <ele>1961</ele>
        <time>2016-10-16T11:26:23Z</time>
      </trkpt>
      <trkpt lat="42.99197" lon="0.06692">
        <ele>1955.5</ele>
        <time>2016-10-16T11:26:43Z</time>
      </trkpt>
      <trkpt lat="42.99206" lon="0.06692">
        <ele>1951.7</ele>
        <time>2016-10-16T11:26:53Z</time>
      </trkpt>
      <trkpt lat="42.99214" lon="0.06696">
        <ele>1950.1</ele>
        <time>2016-10-16T11:27:03Z</time>
      </trkpt>
      <trkpt lat="42.99223" lon="0.06694">
        <ele>1944.2</ele>
        <time>2016-10-16T11:27:20Z</time>
      </trkpt>
      <trkpt lat="42.99231" lon="0.06693">
        <ele>1941</ele>
        <time>2016-10-16T11:27:32Z</time>
      </trkpt>
      <trkpt lat="42.99232" lon="0.06693">
        <ele>1940.7</ele>
        <time>2016-10-16T11:27:33Z</time>
      </trkpt>
      <trkpt lat="42.99248" lon="0.06697">
        <ele>1935.4</ele>
        <time>2016-10-16T11:27:53Z</time>
      </trkpt>
      <trkpt lat="42.99257" lon="0.06698">
        <ele>1931.6</ele>
        <time>2016-10-16T11:28:03Z</time>
      </trkpt>
      <trkpt lat="42.99266" lon="0.06698">
        <ele>1929</ele>
        <time>2016-10-16T11:28:15Z</time>
      </trkpt>
      <trkpt lat="42.99274" lon="0.06698">
        <ele>1925.2</ele>
        <time>2016-10-16T11:28:30Z</time>
      </trkpt>
      <trkpt lat="42.99282" lon="0.06694">
        <ele>1920.3</ele>
        <time>2016-10-16T11:28:52Z</time>
      </trkpt>
      <trkpt lat="42.99283" lon="0.06694">
        <ele>1920</ele>
        <time>2016-10-16T11:28:53Z</time>
      </trkpt>
      <trkpt lat="42.99299" lon="0.06686">
        <ele>1910.8</ele>
        <time>2016-10-16T11:29:25Z</time>
      </trkpt>
      <trkpt lat="42.99307" lon="0.06684">
        <ele>1905.9</ele>
        <time>2016-10-16T11:29:39Z</time>
      </trkpt>
      <trkpt lat="42.99316" lon="0.06684">
        <ele>1902.1</ele>
        <time>2016-10-16T11:29:59Z</time>
      </trkpt>
      <trkpt lat="42.99316" lon="0.06684">
        <ele>1901.8</ele>
        <time>2016-10-16T11:30:00Z</time>
      </trkpt>
      <trkpt lat="42.99329" lon="0.06671">
        <ele>1891.6</ele>
        <time>2016-10-16T11:30:39Z</time>
      </trkpt>
      <trkpt lat="42.99337" lon="0.06668">
        <ele>1886.9</ele>
        <time>2016-10-16T11:30:52Z</time>
      </trkpt>
      <trkpt lat="42.99346" lon="0.06667">
        <ele>1883.1</ele>
        <time>2016-10-16T11:31:05Z</time>
      </trkpt>
      <trkpt lat="42.99346" lon="0.06667">
        <ele>1883</ele>
        <time>2016-10-16T11:31:06Z</time>
      </trkpt>
      <trkpt lat="42.99362" lon="0.06661">
        <ele>1872.2</ele>
        <time>2016-10-16T11:31:45Z</time>
      </trkpt>
      <trkpt lat="42.99371" lon="0.06663">
        <ele>1867.6</ele>
        <time>2016-10-16T11:31:58Z</time>
      </trkpt>
      <trkpt lat="42.99379" lon="0.06661">
        <ele>1863.9</ele>
        <time>2016-10-16T11:32:12Z</time>
      </trkpt>
      <trkpt lat="42.9938" lon="0.06661">
        <ele>1863.8</ele>
        <time>2016-10-16T11:32:13Z</time>
      </trkpt>
      <trkpt lat="42.99396" lon="0.06659">
        <ele>1855</ele>
        <time>2016-10-16T11:32:45Z</time>
      </trkpt>
      <trkpt lat="42.99404" lon="0.06659">
        <ele>1851.7</ele>
        <time>2016-10-16T11:33:01Z</time>
      </trkpt>
      <trkpt lat="42.99412" lon="0.06658">
        <ele>1846</ele>
        <time>2016-10-16T11:33:26Z</time>
      </trkpt>
      <trkpt lat="42.99413" lon="0.06658">
        <ele>1845.4</ele>
        <time>2016-10-16T11:33:27Z</time>
      </trkpt>
      <trkpt lat="42.99428" lon="0.06649">
        <ele>1834.1</ele>
        <time>2016-10-16T11:34:04Z</time>
      </trkpt>
      <trkpt lat="42.99436" lon="0.06652">
        <ele>1830.2</ele>
        <time>2016-10-16T11:34:21Z</time>
      </trkpt>
      <trkpt lat="42.99445" lon="0.06651">
        <ele>1824.2</ele>
        <time>2016-10-16T11:34:41Z</time>
      </trkpt>
      <trkpt lat="42.99445" lon="0.0665">
        <ele>1824.2</ele>
        <time>2016-10-16T11:34:42Z</time>
      </trkpt>
      <trkpt lat="42.99454" lon="0.06632">
        <ele>1817.3</ele>
        <time>2016-10-16T11:35:11Z</time>
      </trkpt>
      <trkpt lat="42.99461" lon="0.06623">
        <ele>1812.1</ele>
        <time>2016-10-16T11:35:30Z</time>
      </trkpt>
      <trkpt lat="42.99469" lon="0.06625">
        <ele>1807.2</ele>
        <time>2016-10-16T11:35:43Z</time>
      </trkpt>
      <trkpt lat="42.9947" lon="0.06626">
        <ele>1807.2</ele>
        <time>2016-10-16T11:35:44Z</time>
      </trkpt>
      <trkpt lat="42.99484" lon="0.06635">
        <ele>1801.8</ele>
        <time>2016-10-16T11:37:48Z</time>
      </trkpt>
      <trkpt lat="42.99484" lon="0.06635">
        <ele>1801.4</ele>
        <time>2016-10-16T11:37:49Z</time>
      </trkpt>
      <trkpt lat="42.99485" lon="0.06648">
        <ele>1797.8</ele>
        <time>2016-10-16T11:41:11Z</time>
      </trkpt>
      <trkpt lat="42.99485" lon="0.06669">
        <ele>1788.1</ele>
        <time>2016-10-16T11:41:42Z</time>
      </trkpt>
      <trkpt lat="42.99491" lon="0.06676">
        <ele>1783.9</ele>
        <time>2016-10-16T11:41:58Z</time>
      </trkpt>
      <trkpt lat="42.99497" lon="0.06685">
        <ele>1779.6</ele>
        <time>2016-10-16T11:42:11Z</time>
      </trkpt>
      <trkpt lat="42.99497" lon="0.06686">
        <ele>1779.4</ele>
        <time>2016-10-16T11:42:12Z</time>
      </trkpt>
      <trkpt lat="42.99503" lon="0.06707">
        <ele>1769.7</ele>
        <time>2016-10-16T11:42:42Z</time>
      </trkpt>
      <trkpt lat="42.99503" lon="0.06719">
        <ele>1765.5</ele>
        <time>2016-10-16T11:43:00Z</time>
      </trkpt>
      <trkpt lat="42.99506" lon="0.0673">
        <ele>1761.4</ele>
        <time>2016-10-16T11:43:21Z</time>
      </trkpt>
      <trkpt lat="42.99507" lon="0.06731">
        <ele>1761.2</ele>
        <time>2016-10-16T11:43:22Z</time>
      </trkpt>
      <trkpt lat="42.99508" lon="0.06754">
        <ele>1753.6</ele>
        <time>2016-10-16T11:44:01Z</time>
      </trkpt>
      <trkpt lat="42.9951" lon="0.06765">
        <ele>1748.8</ele>
        <time>2016-10-16T11:44:17Z</time>
      </trkpt>
      <trkpt lat="42.99516" lon="0.06775">
        <ele>1744.5</ele>
        <time>2016-10-16T11:44:32Z</time>
      </trkpt>
      <trkpt lat="42.99516" lon="0.06776">
        <ele>1744.3</ele>
        <time>2016-10-16T11:44:33Z</time>
      </trkpt>
      <trkpt lat="42.99516" lon="0.06797">
        <ele>1738.1</ele>
        <time>2016-10-16T11:44:57Z</time>
      </trkpt>
      <trkpt lat="42.9952" lon="0.06807">
        <ele>1733.8</ele>
        <time>2016-10-16T11:45:12Z</time>
      </trkpt>
      <trkpt lat="42.99522" lon="0.06819">
        <ele>1729.4</ele>
        <time>2016-10-16T11:47:48Z</time>
      </trkpt>
      <trkpt lat="42.99523" lon="0.0682">
        <ele>1729.4</ele>
        <time>2016-10-16T11:47:49Z</time>
      </trkpt>
      <trkpt lat="42.99527" lon="0.06841">
        <ele>1722.5</ele>
        <time>2016-10-16T11:48:30Z</time>
      </trkpt>
      <trkpt lat="42.99529" lon="0.06851">
        <ele>1718.1</ele>
        <time>2016-10-16T11:48:53Z</time>
      </trkpt>
      <trkpt lat="42.9953" lon="0.06852">
        <ele>1718.2</ele>
        <time>2016-10-16T11:48:54Z</time>
      </trkpt>
      <trkpt lat="42.9954" lon="0.0687">
        <ele>1710.3</ele>
        <time>2016-10-16T11:49:18Z</time>
      </trkpt>
      <trkpt lat="42.99542" lon="0.06882">
        <ele>1706.6</ele>
        <time>2016-10-16T11:49:31Z</time>
      </trkpt>
      <trkpt lat="42.99542" lon="0.06894">
        <ele>1704.2</ele>
        <time>2016-10-16T11:49:43Z</time>
      </trkpt>
      <trkpt lat="42.99546" lon="0.06904">
        <ele>1699.2</ele>
        <time>2016-10-16T11:49:55Z</time>
      </trkpt>
      <trkpt lat="42.99546" lon="0.06905">
        <ele>1698.8</ele>
        <time>2016-10-16T11:49:56Z</time>
      </trkpt>
      <trkpt lat="42.99548" lon="0.06928">
        <ele>1693.8</ele>
        <time>2016-10-16T11:50:18Z</time>
      </trkpt>
      <trkpt lat="42.99551" lon="0.06939">
        <ele>1690</ele>
        <time>2016-10-16T11:50:35Z</time>
      </trkpt>
      <trkpt lat="42.99554" lon="0.06951">
        <ele>1687.1</ele>
        <time>2016-10-16T11:50:48Z</time>
      </trkpt>
      <trkpt lat="42.99553" lon="0.06962">
        <ele>1682.5</ele>
        <time>2016-10-16T11:51:01Z</time>
      </trkpt>
      <trkpt lat="42.99553" lon="0.06963">
        <ele>1682.1</ele>
        <time>2016-10-16T11:51:02Z</time>
      </trkpt>
      <trkpt lat="42.99553" lon="0.06985">
        <ele>1673.9</ele>
        <time>2016-10-16T11:51:27Z</time>
      </trkpt>
      <trkpt lat="42.99553" lon="0.06997">
        <ele>1671.2</ele>
        <time>2016-10-16T11:51:37Z</time>
      </trkpt>
      <trkpt lat="42.99555" lon="0.07009">
        <ele>1664.7</ele>
        <time>2016-10-16T11:51:48Z</time>
      </trkpt>
      <trkpt lat="42.99558" lon="0.0702">
        <ele>1660.1</ele>
        <time>2016-10-16T11:52:00Z</time>
      </trkpt>
      <trkpt lat="42.99558" lon="0.07031">
        <ele>1657.4</ele>
        <time>2016-10-16T11:52:10Z</time>
      </trkpt>
      <trkpt lat="42.99559" lon="0.07032">
        <ele>1656.2</ele>
        <time>2016-10-16T11:52:11Z</time>
      </trkpt>
      <trkpt lat="42.9956" lon="0.07055">
        <ele>1648.6</ele>
        <time>2016-10-16T11:52:28Z</time>
      </trkpt>
      <trkpt lat="42.99564" lon="0.07065">
        <ele>1645.3</ele>
        <time>2016-10-16T11:52:37Z</time>
      </trkpt>
      <trkpt lat="42.99566" lon="0.07076">
        <ele>1641.5</ele>
        <time>2016-10-16T11:52:51Z</time>
      </trkpt>
      <trkpt lat="42.9957" lon="0.07086">
        <ele>1637.1</ele>
        <time>2016-10-16T11:53:03Z</time>
      </trkpt>
      <trkpt lat="42.99573" lon="0.07097">
        <ele>1632.4</ele>
        <time>2016-10-16T11:53:14Z</time>
      </trkpt>
      <trkpt lat="42.99573" lon="0.07099">
        <ele>1632.2</ele>
        <time>2016-10-16T11:53:15Z</time>
      </trkpt>
      <trkpt lat="42.99585" lon="0.07113">
        <ele>1626.9</ele>
        <time>2016-10-16T11:53:34Z</time>
      </trkpt>
      <trkpt lat="42.99591" lon="0.07122">
        <ele>1622.8</ele>
        <time>2016-10-16T11:53:44Z</time>
      </trkpt>
      <trkpt lat="42.99597" lon="0.07131">
        <ele>1619.9</ele>
        <time>2016-10-16T11:54:58Z</time>
      </trkpt>
      <trkpt lat="42.99597" lon="0.07131">
        <ele>1619.7</ele>
        <time>2016-10-16T11:54:59Z</time>
      </trkpt>
      <trkpt lat="42.99609" lon="0.07147">
        <ele>1615.4</ele>
        <time>2016-10-16T11:55:25Z</time>
      </trkpt>
      <trkpt lat="42.99616" lon="0.07154">
        <ele>1613.3</ele>
        <time>2016-10-16T11:55:35Z</time>
      </trkpt>
      <trkpt lat="42.99624" lon="0.07159">
        <ele>1610.9</ele>
        <time>2016-10-16T11:55:45Z</time>
      </trkpt>
      <trkpt lat="42.99633" lon="0.07163">
        <ele>1609.1</ele>
        <time>2016-10-16T11:55:55Z</time>
      </trkpt>
      <trkpt lat="42.99639" lon="0.07171">
        <ele>1606.5</ele>
        <time>2016-10-16T11:56:04Z</time>
      </trkpt>
      <trkpt lat="42.99639" lon="0.07172">
        <ele>1606.9</ele>
        <time>2016-10-16T11:56:05Z</time>
      </trkpt>
      <trkpt lat="42.99644" lon="0.07192">
        <ele>1603</ele>
        <time>2016-10-16T11:56:23Z</time>
      </trkpt>
      <trkpt lat="42.99643" lon="0.07204">
        <ele>1602.1</ele>
        <time>2016-10-16T11:56:33Z</time>
      </trkpt>
      <trkpt lat="42.99643" lon="0.07215">
        <ele>1600.8</ele>
        <time>2016-10-16T11:56:44Z</time>
      </trkpt>
      <trkpt lat="42.99643" lon="0.07227">
        <ele>1597.6</ele>
        <time>2016-10-16T11:56:57Z</time>
      </trkpt>
      <trkpt lat="42.99647" lon="0.07237">
        <ele>1595.8</ele>
        <time>2016-10-16T11:57:07Z</time>
      </trkpt>
      <trkpt lat="42.99648" lon="0.07238">
        <ele>1595.2</ele>
        <time>2016-10-16T11:57:08Z</time>
      </trkpt>
      <trkpt lat="42.99652" lon="0.0726">
        <ele>1591.7</ele>
        <time>2016-10-16T11:57:24Z</time>
      </trkpt>
      <trkpt lat="42.99654" lon="0.07272">
        <ele>1589.4</ele>
        <time>2016-10-16T11:57:33Z</time>
      </trkpt>
      <trkpt lat="42.99658" lon="0.07282">
        <ele>1587</ele>
        <time>2016-10-16T11:57:42Z</time>
      </trkpt>
      <trkpt lat="42.99662" lon="0.07292">
        <ele>1584.7</ele>
        <time>2016-10-16T11:57:52Z</time>
      </trkpt>
      <trkpt lat="42.99665" lon="0.07304">
        <ele>1581</ele>
        <time>2016-10-16T11:58:07Z</time>
      </trkpt>
      <trkpt lat="42.99666" lon="0.07315">
        <ele>1577.3</ele>
        <time>2016-10-16T11:58:26Z</time>
      </trkpt>
      <trkpt lat="42.99667" lon="0.07316">
        <ele>1577.4</ele>
        <time>2016-10-16T11:58:27Z</time>
      </trkpt>
      <trkpt lat="42.99672" lon="0.07338">
        <ele>1573.1</ele>
        <time>2016-10-16T11:58:49Z</time>
      </trkpt>
      <trkpt lat="42.99668" lon="0.07349">
        <ele>1568.8</ele>
        <time>2016-10-16T11:59:00Z</time>
      </trkpt>
      <trkpt lat="42.99668" lon="0.0736">
        <ele>1566.3</ele>
        <time>2016-10-16T11:59:12Z</time>
      </trkpt>
      <trkpt lat="42.99669" lon="0.07372">
        <ele>1563.9</ele>
        <time>2016-10-16T11:59:27Z</time>
      </trkpt>
      <trkpt lat="42.99669" lon="0.07373">
        <ele>1563.3</ele>
        <time>2016-10-16T11:59:28Z</time>
      </trkpt>
      <trkpt lat="42.99668" lon="0.07395">
        <ele>1560</ele>
        <time>2016-10-16T11:59:47Z</time>
      </trkpt>
      <trkpt lat="42.9967" lon="0.07406">
        <ele>1558.5</ele>
        <time>2016-10-16T11:59:57Z</time>
      </trkpt>
      <trkpt lat="42.99672" lon="0.07417">
        <ele>1557.2</ele>
        <time>2016-10-16T12:00:07Z</time>
      </trkpt>
      <trkpt lat="42.99675" lon="0.07428">
        <ele>1554.9</ele>
        <time>2016-10-16T12:00:19Z</time>
      </trkpt>
      <trkpt lat="42.99675" lon="0.0744">
        <ele>1551.4</ele>
        <time>2016-10-16T12:00:30Z</time>
      </trkpt>
      <trkpt lat="42.99675" lon="0.07441">
        <ele>1551.2</ele>
        <time>2016-10-16T12:00:31Z</time>
      </trkpt>
      <trkpt lat="42.9968" lon="0.07462">
        <ele>1543.7</ele>
        <time>2016-10-16T12:01:00Z</time>
      </trkpt>
      <trkpt lat="42.99681" lon="0.07474">
        <ele>1539.1</ele>
        <time>2016-10-16T12:01:19Z</time>
      </trkpt>
      <trkpt lat="42.99682" lon="0.07485">
        <ele>1535.7</ele>
        <time>2016-10-16T12:01:37Z</time>
      </trkpt>
      <trkpt lat="42.99682" lon="0.07486">
        <ele>1535.7</ele>
        <time>2016-10-16T12:01:38Z</time>
      </trkpt>
      <trkpt lat="42.99682" lon="0.07509">
        <ele>1528.9</ele>
        <time>2016-10-16T12:02:06Z</time>
      </trkpt>
      <trkpt lat="42.99683" lon="0.07521">
        <ele>1525.5</ele>
        <time>2016-10-16T12:02:20Z</time>
      </trkpt>
      <trkpt lat="42.99681" lon="0.07533">
        <ele>1523.2</ele>
        <time>2016-10-16T12:02:34Z</time>
      </trkpt>
      <trkpt lat="42.99679" lon="0.07545">
        <ele>1520.3</ele>
        <time>2016-10-16T12:02:49Z</time>
      </trkpt>
      <trkpt lat="42.99679" lon="0.07545">
        <ele>1520.2</ele>
        <time>2016-10-16T12:02:50Z</time>
      </trkpt>
      <trkpt lat="42.99681" lon="0.07568">
        <ele>1513.4</ele>
        <time>2016-10-16T12:03:13Z</time>
      </trkpt>
      <trkpt lat="42.99685" lon="0.07579">
        <ele>1512.1</ele>
        <time>2016-10-16T12:03:22Z</time>
      </trkpt>
      <trkpt lat="42.99687" lon="0.0759">
        <ele>1508.8</ele>
        <time>2016-10-16T12:03:33Z</time>
      </trkpt>
      <trkpt lat="42.99688" lon="0.07602">
        <ele>1504.9</ele>
        <time>2016-10-16T12:03:48Z</time>
      </trkpt>
      <trkpt lat="42.99692" lon="0.07613">
        <ele>1498.5</ele>
        <time>2016-10-16T12:04:10Z</time>
      </trkpt>
      <trkpt lat="42.99692" lon="0.07614">
        <ele>1498.2</ele>
        <time>2016-10-16T12:04:11Z</time>
      </trkpt>
      <trkpt lat="42.99696" lon="0.07636">
        <ele>1493.6</ele>
        <time>2016-10-16T12:04:34Z</time>
      </trkpt>
      <trkpt lat="42.99703" lon="0.07645">
        <ele>1492.1</ele>
        <time>2016-10-16T12:04:45Z</time>
      </trkpt>
      <trkpt lat="42.99707" lon="0.07655">
        <ele>1489.6</ele>
        <time>2016-10-16T12:04:54Z</time>
      </trkpt>
      <trkpt lat="42.99709" lon="0.07666">
        <ele>1487.5</ele>
        <time>2016-10-16T12:05:05Z</time>
      </trkpt>
      <trkpt lat="42.99709" lon="0.07678">
        <ele>1483.5</ele>
        <time>2016-10-16T12:05:18Z</time>
      </trkpt>
      <trkpt lat="42.99709" lon="0.0768">
        <ele>1483.4</ele>
        <time>2016-10-16T12:05:19Z</time>
      </trkpt>
      <trkpt lat="42.99709" lon="0.07701">
        <ele>1478.7</ele>
        <time>2016-10-16T12:05:36Z</time>
      </trkpt>
      <trkpt lat="42.99708" lon="0.07712">
        <ele>1476.6</ele>
        <time>2016-10-16T12:05:47Z</time>
      </trkpt>
      <trkpt lat="42.99702" lon="0.0772">
        <ele>1471</ele>
        <time>2016-10-16T12:06:03Z</time>
      </trkpt>
      <trkpt lat="42.99697" lon="0.0773">
        <ele>1468.8</ele>
        <time>2016-10-16T12:08:47Z</time>
      </trkpt>
      <trkpt lat="42.99697" lon="0.07731">
        <ele>1468.7</ele>
        <time>2016-10-16T12:08:48Z</time>
      </trkpt>
      <trkpt lat="42.99695" lon="0.07752">
        <ele>1464.7</ele>
        <time>2016-10-16T12:09:05Z</time>
      </trkpt>
      <trkpt lat="42.99694" lon="0.07764">
        <ele>1463.5</ele>
        <time>2016-10-16T12:09:13Z</time>
      </trkpt>
      <trkpt lat="42.9969" lon="0.07774">
        <ele>1460.6</ele>
        <time>2016-10-16T12:09:24Z</time>
      </trkpt>
      <trkpt lat="42.99687" lon="0.07784">
        <ele>1456.8</ele>
        <time>2016-10-16T12:09:36Z</time>
      </trkpt>
      <trkpt lat="42.99686" lon="0.07796">
        <ele>1454.9</ele>
        <time>2016-10-16T12:09:46Z</time>
      </trkpt>
      <trkpt lat="42.99686" lon="0.07808">
        <ele>1453.7</ele>
        <time>2016-10-16T12:09:57Z</time>
      </trkpt>
      <trkpt lat="42.99685" lon="0.0781">
        <ele>1453.8</ele>
        <time>2016-10-16T12:09:58Z</time>
      </trkpt>
      <trkpt lat="42.99681" lon="0.07831">
        <ele>1451.5</ele>
        <time>2016-10-16T12:10:11Z</time>
      </trkpt>
      <trkpt lat="42.9968" lon="0.07842">
        <ele>1451.2</ele>
        <time>2016-10-16T12:10:18Z</time>
      </trkpt>
      <trkpt lat="42.99683" lon="0.07853">
        <ele>1449.5</ele>
        <time>2016-10-16T12:10:27Z</time>
      </trkpt>
      <trkpt lat="42.99684" lon="0.07865">
        <ele>1447.4</ele>
        <time>2016-10-16T12:10:35Z</time>
      </trkpt>
      <trkpt lat="42.99685" lon="0.07876">
        <ele>1448.2</ele>
        <time>2016-10-16T12:10:42Z</time>
      </trkpt>
      <trkpt lat="42.99688" lon="0.07888">
        <ele>1446.6</ele>
        <time>2016-10-16T12:10:49Z</time>
      </trkpt>
      <trkpt lat="42.99689" lon="0.07899">
        <ele>1445.1</ele>
        <time>2016-10-16T12:10:58Z</time>
      </trkpt>
      <trkpt lat="42.99689" lon="0.079">
        <ele>1445</ele>
        <time>2016-10-16T12:10:59Z</time>
      </trkpt>
      <trkpt lat="42.99694" lon="0.0792">
        <ele>1440.3</ele>
        <time>2016-10-16T12:11:15Z</time>
      </trkpt>
      <trkpt lat="42.99693" lon="0.07931">
        <ele>1437.4</ele>
        <time>2016-10-16T12:11:24Z</time>
      </trkpt>
      <trkpt lat="42.99693" lon="0.07943">
        <ele>1435.3</ele>
        <time>2016-10-16T12:11:32Z</time>
      </trkpt>
      <trkpt lat="42.99691" lon="0.07954">
        <ele>1431.8</ele>
        <time>2016-10-16T12:11:42Z</time>
      </trkpt>
      <trkpt lat="42.99687" lon="0.07964">
        <ele>1428.5</ele>
        <time>2016-10-16T12:11:53Z</time>
      </trkpt>
      <trkpt lat="42.99682" lon="0.07973">
        <ele>1424.1</ele>
        <time>2016-10-16T12:12:02Z</time>
      </trkpt>
      <trkpt lat="42.99682" lon="0.07974">
        <ele>1423.7</ele>
        <time>2016-10-16T12:12:03Z</time>
      </trkpt>
      <trkpt lat="42.9967" lon="0.0799">
        <ele>1416.5</ele>
        <time>2016-10-16T12:12:24Z</time>
      </trkpt>
      <trkpt lat="42.99662" lon="0.07987">
        <ele>1413.5</ele>
        <time>2016-10-16T12:12:47Z</time>
      </trkpt>
      <trkpt lat="42.99659" lon="0.07976">
        <ele>1410.7</ele>
        <time>2016-10-16T12:13:30Z</time>
      </trkpt>
      <trkpt lat="42.99658" lon="0.07975">
        <ele>1410.8</ele>
        <time>2016-10-16T12:13:31Z</time>
      </trkpt>
      <trkpt lat="42.99645" lon="0.07986">
        <ele>1405.5</ele>
        <time>2016-10-16T12:14:12Z</time>
      </trkpt>
      <trkpt lat="42.99642" lon="0.07997">
        <ele>1404.2</ele>
        <time>2016-10-16T12:14:24Z</time>
      </trkpt>
      <trkpt lat="42.99636" lon="0.07989">
        <ele>1404.4</ele>
        <time>2016-10-16T12:15:01Z</time>
      </trkpt>
      <trkpt lat="42.99635" lon="0.07988">
        <ele>1404.3</ele>
        <time>2016-10-16T12:15:02Z</time>
      </trkpt>
      <trkpt lat="42.99628" lon="0.08009">
        <ele>1400.4</ele>
        <time>2016-10-16T12:15:38Z</time>
      </trkpt>
      <trkpt lat="42.99623" lon="0.08017">
        <ele>1398.2</ele>
        <time>2016-10-16T12:15:43Z</time>
      </trkpt>
      <trkpt lat="42.9962" lon="0.08026">
        <ele>1397.2</ele>
        <time>2016-10-16T12:15:47Z</time>
      </trkpt>
      <trkpt lat="42.99615" lon="0.08036">
        <ele>1394.2</ele>
        <time>2016-10-16T12:15:52Z</time>
      </trkpt>
      <trkpt lat="42.99611" lon="0.08047">
        <ele>1392.9</ele>
        <time>2016-10-16T12:15:57Z</time>
      </trkpt>
      <trkpt lat="42.99608" lon="0.08056">
        <ele>1391.2</ele>
        <time>2016-10-16T12:16:02Z</time>
      </trkpt>
      <trkpt lat="42.99607" lon="0.08058">
        <ele>1391</ele>
        <time>2016-10-16T12:16:03Z</time>
      </trkpt>
      <trkpt lat="42.99597" lon="0.08075">
        <ele>1387.4</ele>
        <time>2016-10-16T12:16:16Z</time>
      </trkpt>
      <trkpt lat="42.99592" lon="0.08085">
        <ele>1385.9</ele>
        <time>2016-10-16T12:16:27Z</time>
      </trkpt>
      <trkpt lat="42.99587" lon="0.08094">
        <ele>1385.6</ele>
        <time>2016-10-16T12:16:35Z</time>
      </trkpt>
      <trkpt lat="42.99582" lon="0.08104">
        <ele>1383.9</ele>
        <time>2016-10-16T12:16:42Z</time>
      </trkpt>
      <trkpt lat="42.99577" lon="0.08112">
        <ele>1381.8</ele>
        <time>2016-10-16T12:16:49Z</time>
      </trkpt>
      <trkpt lat="42.99573" lon="0.08122">
        <ele>1381</ele>
        <time>2016-10-16T12:16:57Z</time>
      </trkpt>
      <trkpt lat="42.99567" lon="0.0813">
        <ele>1379.5</ele>
        <time>2016-10-16T12:17:06Z</time>
      </trkpt>
      <trkpt lat="42.99567" lon="0.08131">
        <ele>1379.6</ele>
        <time>2016-10-16T12:17:07Z</time>
      </trkpt>
      <trkpt lat="42.99556" lon="0.08147">
        <ele>1373.5</ele>
        <time>2016-10-16T12:17:35Z</time>
      </trkpt>
      <trkpt lat="42.99552" lon="0.08158">
        <ele>1372</ele>
        <time>2016-10-16T12:17:51Z</time>
      </trkpt>
      <trkpt lat="42.99546" lon="0.08167">
        <ele>1368.3</ele>
        <time>2016-10-16T12:18:06Z</time>
      </trkpt>
      <trkpt lat="42.99544" lon="0.08179">
        <ele>1366.4</ele>
        <time>2016-10-16T12:18:21Z</time>
      </trkpt>
      <trkpt lat="42.99543" lon="0.08179">
        <ele>1366.5</ele>
        <time>2016-10-16T12:18:22Z</time>
      </trkpt>
      <trkpt lat="42.99534" lon="0.08198">
        <ele>1362.1</ele>
        <time>2016-10-16T12:18:42Z</time>
      </trkpt>
      <trkpt lat="42.99529" lon="0.08208">
        <ele>1360.3</ele>
        <time>2016-10-16T12:18:52Z</time>
      </trkpt>
      <trkpt lat="42.99527" lon="0.08218">
        <ele>1358.8</ele>
        <time>2016-10-16T12:19:03Z</time>
      </trkpt>
      <trkpt lat="42.99521" lon="0.08226">
        <ele>1357.5</ele>
        <time>2016-10-16T12:19:10Z</time>
      </trkpt>
      <trkpt lat="42.99515" lon="0.08235">
        <ele>1355.6</ele>
        <time>2016-10-16T12:19:18Z</time>
      </trkpt>
      <trkpt lat="42.99511" lon="0.08244">
        <ele>1354.8</ele>
        <time>2016-10-16T12:19:24Z</time>
      </trkpt>
      <trkpt lat="42.9951" lon="0.08246">
        <ele>1354.8</ele>
        <time>2016-10-16T12:19:25Z</time>
      </trkpt>
      <trkpt lat="42.99499" lon="0.08261">
        <ele>1352.6</ele>
        <time>2016-10-16T12:19:37Z</time>
      </trkpt>
      <trkpt lat="42.99494" lon="0.0827">
        <ele>1351.4</ele>
        <time>2016-10-16T12:19:45Z</time>
      </trkpt>
      <trkpt lat="42.99489" lon="0.0828">
        <ele>1350.6</ele>
        <time>2016-10-16T12:19:54Z</time>
      </trkpt>
      <trkpt lat="42.99482" lon="0.08288">
        <ele>1349.4</ele>
        <time>2016-10-16T12:20:02Z</time>
      </trkpt>
      <trkpt lat="42.99478" lon="0.08298">
        <ele>1349.1</ele>
        <time>2016-10-16T12:20:10Z</time>
      </trkpt>
      <trkpt lat="42.99473" lon="0.08307">
        <ele>1347.1</ele>
        <time>2016-10-16T12:20:18Z</time>
      </trkpt>
      <trkpt lat="42.99467" lon="0.08315">
        <ele>1348.1</ele>
        <time>2016-10-16T12:20:25Z</time>
      </trkpt>
      <trkpt lat="42.99466" lon="0.08316">
        <ele>1348.3</ele>
        <time>2016-10-16T12:20:26Z</time>
      </trkpt>
      <trkpt lat="42.99456" lon="0.08334">
        <ele>1344.3</ele>
        <time>2016-10-16T12:20:49Z</time>
      </trkpt>
      <trkpt lat="42.9945" lon="0.08342">
        <ele>1344.1</ele>
        <time>2016-10-16T12:20:57Z</time>
      </trkpt>
      <trkpt lat="42.99446" lon="0.08351">
        <ele>1342.8</ele>
        <time>2016-10-16T12:21:04Z</time>
      </trkpt>
      <trkpt lat="42.99441" lon="0.08361">
        <ele>1341.4</ele>
        <time>2016-10-16T12:21:12Z</time>
      </trkpt>
      <trkpt lat="42.99436" lon="0.08371">
        <ele>1341</ele>
        <time>2016-10-16T12:21:20Z</time>
      </trkpt>
      <trkpt lat="42.99431" lon="0.0838">
        <ele>1339.3</ele>
        <time>2016-10-16T12:21:27Z</time>
      </trkpt>
      <trkpt lat="42.9943" lon="0.08381">
        <ele>1338.9</ele>
        <time>2016-10-16T12:21:28Z</time>
      </trkpt>
      <trkpt lat="42.9942" lon="0.08397">
        <ele>1335.4</ele>
        <time>2016-10-16T12:21:43Z</time>
      </trkpt>
      <trkpt lat="42.99414" lon="0.08406">
        <ele>1334.1</ele>
        <time>2016-10-16T12:21:51Z</time>
      </trkpt>
      <trkpt lat="42.9941" lon="0.08415">
        <ele>1333.6</ele>
        <time>2016-10-16T12:21:57Z</time>
      </trkpt>
      <trkpt lat="42.99405" lon="0.08425">
        <ele>1332.2</ele>
        <time>2016-10-16T12:22:04Z</time>
      </trkpt>
      <trkpt lat="42.994" lon="0.08433">
        <ele>1329.7</ele>
        <time>2016-10-16T12:22:11Z</time>
      </trkpt>
      <trkpt lat="42.99393" lon="0.08441">
        <ele>1328.2</ele>
        <time>2016-10-16T12:22:16Z</time>
      </trkpt>
      <trkpt lat="42.99388" lon="0.08451">
        <ele>1326.7</ele>
        <time>2016-10-16T12:22:23Z</time>
      </trkpt>
      <trkpt lat="42.99383" lon="0.08459">
        <ele>1326</ele>
        <time>2016-10-16T12:22:30Z</time>
      </trkpt>
      <trkpt lat="42.99382" lon="0.08461">
        <ele>1326.1</ele>
        <time>2016-10-16T12:22:31Z</time>
      </trkpt>
      <trkpt lat="42.99372" lon="0.08476">
        <ele>1321.2</ele>
        <time>2016-10-16T12:22:43Z</time>
      </trkpt>
      <trkpt lat="42.99364" lon="0.08482">
        <ele>1319.3</ele>
        <time>2016-10-16T12:22:53Z</time>
      </trkpt>
      <trkpt lat="42.99359" lon="0.08491">
        <ele>1316.3</ele>
        <time>2016-10-16T12:23:02Z</time>
      </trkpt>
      <trkpt lat="42.99354" lon="0.085">
        <ele>1313.3</ele>
        <time>2016-10-16T12:23:08Z</time>
      </trkpt>
      <trkpt lat="42.99352" lon="0.08511">
        <ele>1310.8</ele>
        <time>2016-10-16T12:23:18Z</time>
      </trkpt>
      <trkpt lat="42.99355" lon="0.08522">
        <ele>1309.9</ele>
        <time>2016-10-16T12:23:32Z</time>
      </trkpt>
      <trkpt lat="42.99356" lon="0.08522">
        <ele>1310</ele>
        <time>2016-10-16T12:23:33Z</time>
      </trkpt>
      <trkpt lat="42.99361" lon="0.08542">
        <ele>1309.5</ele>
        <time>2016-10-16T12:23:43Z</time>
      </trkpt>
      <trkpt lat="42.99362" lon="0.08553">
        <ele>1307.5</ele>
        <time>2016-10-16T12:23:49Z</time>
      </trkpt>
      <trkpt lat="42.99356" lon="0.08563">
        <ele>1304.5</ele>
        <time>2016-10-16T12:23:58Z</time>
      </trkpt>
      <trkpt lat="42.99349" lon="0.0857">
        <ele>1301.9</ele>
        <time>2016-10-16T12:24:07Z</time>
      </trkpt>
      <trkpt lat="42.99343" lon="0.08578">
        <ele>1300.4</ele>
        <time>2016-10-16T12:24:15Z</time>
      </trkpt>
      <trkpt lat="42.99338" lon="0.08588">
        <ele>1300</ele>
        <time>2016-10-16T12:24:24Z</time>
      </trkpt>
      <trkpt lat="42.99332" lon="0.08597">
        <ele>1298.6</ele>
        <time>2016-10-16T12:24:32Z</time>
      </trkpt>
      <trkpt lat="42.99328" lon="0.08607">
        <ele>1297.1</ele>
        <time>2016-10-16T12:24:40Z</time>
      </trkpt>
      <trkpt lat="42.99328" lon="0.08608">
        <ele>1297</ele>
        <time>2016-10-16T12:24:41Z</time>
      </trkpt>
      <trkpt lat="42.99318" lon="0.08626">
        <ele>1296</ele>
        <time>2016-10-16T12:25:05Z</time>
      </trkpt>
      <trkpt lat="42.99314" lon="0.08635">
        <ele>1295.3</ele>
        <time>2016-10-16T12:25:13Z</time>
      </trkpt>
      <trkpt lat="42.99311" lon="0.08647">
        <ele>1293.4</ele>
        <time>2016-10-16T12:25:23Z</time>
      </trkpt>
      <trkpt lat="42.99308" lon="0.08657">
        <ele>1292.1</ele>
        <time>2016-10-16T12:25:32Z</time>
      </trkpt>
      <trkpt lat="42.99303" lon="0.08667">
        <ele>1290.5</ele>
        <time>2016-10-16T12:25:40Z</time>
      </trkpt>
      <trkpt lat="42.993" lon="0.08678">
        <ele>1287.9</ele>
        <time>2016-10-16T12:25:48Z</time>
      </trkpt>
      <trkpt lat="42.99299" lon="0.08679">
        <ele>1287.7</ele>
        <time>2016-10-16T12:25:49Z</time>
      </trkpt>
      <trkpt lat="42.99296" lon="0.08701">
        <ele>1284.1</ele>
        <time>2016-10-16T12:26:09Z</time>
      </trkpt>
      <trkpt lat="42.99287" lon="0.08704">
        <ele>1281.3</ele>
        <time>2016-10-16T12:26:19Z</time>
      </trkpt>
      <trkpt lat="42.99281" lon="0.08711">
        <ele>1279.2</ele>
        <time>2016-10-16T12:26:29Z</time>
      </trkpt>
      <trkpt lat="42.99277" lon="0.08722">
        <ele>1279.6</ele>
        <time>2016-10-16T12:26:38Z</time>
      </trkpt>
      <trkpt lat="42.99274" lon="0.08733">
        <ele>1278</ele>
        <time>2016-10-16T12:26:50Z</time>
      </trkpt>
      <trkpt lat="42.99274" lon="0.08734">
        <ele>1277.8</ele>
        <time>2016-10-16T12:26:51Z</time>
      </trkpt>
      <trkpt lat="42.99267" lon="0.08754">
        <ele>1277.2</ele>
        <time>2016-10-16T12:27:08Z</time>
      </trkpt>
      <trkpt lat="42.99261" lon="0.08763">
        <ele>1276.4</ele>
        <time>2016-10-16T12:27:17Z</time>
      </trkpt>
      <trkpt lat="42.99258" lon="0.08774">
        <ele>1277</ele>
        <time>2016-10-16T12:27:25Z</time>
      </trkpt>
      <trkpt lat="42.99253" lon="0.08782">
        <ele>1275.7</ele>
        <time>2016-10-16T12:27:31Z</time>
      </trkpt>
      <trkpt lat="42.99248" lon="0.08791">
        <ele>1276.1</ele>
        <time>2016-10-16T12:27:37Z</time>
      </trkpt>
      <trkpt lat="42.99242" lon="0.08799">
        <ele>1275.8</ele>
        <time>2016-10-16T12:27:43Z</time>
      </trkpt>
      <trkpt lat="42.99236" lon="0.08807">
        <ele>1275.9</ele>
        <time>2016-10-16T12:27:51Z</time>
      </trkpt>
      <trkpt lat="42.99235" lon="0.08809">
        <ele>1276</ele>
        <time>2016-10-16T12:27:52Z</time>
      </trkpt>
      <trkpt lat="42.99225" lon="0.08825">
        <ele>1276.9</ele>
        <time>2016-10-16T12:28:05Z</time>
      </trkpt>
      <trkpt lat="42.99218" lon="0.08833">
        <ele>1276</ele>
        <time>2016-10-16T12:28:12Z</time>
      </trkpt>
      <trkpt lat="42.99212" lon="0.08842">
        <ele>1273.8</ele>
        <time>2016-10-16T12:28:19Z</time>
      </trkpt>
      <trkpt lat="42.99208" lon="0.08851">
        <ele>1271.9</ele>
        <time>2016-10-16T12:28:25Z</time>
      </trkpt>
      <trkpt lat="42.99203" lon="0.0886">
        <ele>1269.8</ele>
        <time>2016-10-16T12:28:31Z</time>
      </trkpt>
      <trkpt lat="42.99199" lon="0.0887">
        <ele>1269.4</ele>
        <time>2016-10-16T12:28:36Z</time>
      </trkpt>
      <trkpt lat="42.99195" lon="0.0888">
        <ele>1268.1</ele>
        <time>2016-10-16T12:28:42Z</time>
      </trkpt>
      <trkpt lat="42.9919" lon="0.0889">
        <ele>1266.5</ele>
        <time>2016-10-16T12:28:49Z</time>
      </trkpt>
      <trkpt lat="42.99185" lon="0.089">
        <ele>1264.3</ele>
        <time>2016-10-16T12:28:56Z</time>
      </trkpt>
      <trkpt lat="42.99184" lon="0.08902">
        <ele>1263.8</ele>
        <time>2016-10-16T12:28:57Z</time>
      </trkpt>
      <trkpt lat="42.99175" lon="0.08919">
        <ele>1261.4</ele>
        <time>2016-10-16T12:29:09Z</time>
      </trkpt>
      <trkpt lat="42.99172" lon="0.08929">
        <ele>1258.4</ele>
        <time>2016-10-16T12:29:16Z</time>
      </trkpt>
      <trkpt lat="42.99168" lon="0.08939">
        <ele>1257.5</ele>
        <time>2016-10-16T12:29:23Z</time>
      </trkpt>
      <trkpt lat="42.99165" lon="0.0895">
        <ele>1255.8</ele>
        <time>2016-10-16T12:29:31Z</time>
      </trkpt>
      <trkpt lat="42.99163" lon="0.08961">
        <ele>1253.3</ele>
        <time>2016-10-16T12:29:40Z</time>
      </trkpt>
      <trkpt lat="42.99162" lon="0.08972">
        <ele>1251.7</ele>
        <time>2016-10-16T12:29:47Z</time>
      </trkpt>
      <trkpt lat="42.99163" lon="0.08983">
        <ele>1250</ele>
        <time>2016-10-16T12:29:55Z</time>
      </trkpt>
      <trkpt lat="42.99166" lon="0.08994">
        <ele>1248.7</ele>
        <time>2016-10-16T12:30:03Z</time>
      </trkpt>
      <trkpt lat="42.99166" lon="0.08996">
        <ele>1248.6</ele>
        <time>2016-10-16T12:30:04Z</time>
      </trkpt>
      <trkpt lat="42.99173" lon="0.09015">
        <ele>1245.3</ele>
        <time>2016-10-16T12:30:32Z</time>
      </trkpt>
      <trkpt lat="42.99176" lon="0.09026">
        <ele>1243.2</ele>
        <time>2016-10-16T12:30:43Z</time>
      </trkpt>
      <trkpt lat="42.99174" lon="0.09037">
        <ele>1239.6</ele>
        <time>2016-10-16T12:30:54Z</time>
      </trkpt>
      <trkpt lat="42.99172" lon="0.09048">
        <ele>1237.7</ele>
        <time>2016-10-16T12:31:01Z</time>
      </trkpt>
      <trkpt lat="42.99169" lon="0.09059">
        <ele>1236.3</ele>
        <time>2016-10-16T12:31:09Z</time>
      </trkpt>
      <trkpt lat="42.99169" lon="0.0906">
        <ele>1236</ele>
        <time>2016-10-16T12:31:10Z</time>
      </trkpt>
      <trkpt lat="42.99168" lon="0.09082">
        <ele>1231.2</ele>
        <time>2016-10-16T12:31:23Z</time>
      </trkpt>
      <trkpt lat="42.99168" lon="0.09093">
        <ele>1229.6</ele>
        <time>2016-10-16T12:31:30Z</time>
      </trkpt>
      <trkpt lat="42.9917" lon="0.09105">
        <ele>1227.1</ele>
        <time>2016-10-16T12:31:37Z</time>
      </trkpt>
      <trkpt lat="42.99174" lon="0.09115">
        <ele>1224.5</ele>
        <time>2016-10-16T12:31:43Z</time>
      </trkpt>
      <trkpt lat="42.99176" lon="0.09126">
        <ele>1221.6</ele>
        <time>2016-10-16T12:31:50Z</time>
      </trkpt>
      <trkpt lat="42.99179" lon="0.09137">
        <ele>1219.1</ele>
        <time>2016-10-16T12:31:58Z</time>
      </trkpt>
      <trkpt lat="42.99182" lon="0.09147">
        <ele>1216.8</ele>
        <time>2016-10-16T12:32:05Z</time>
      </trkpt>
      <trkpt lat="42.99183" lon="0.09158">
        <ele>1215.8</ele>
        <time>2016-10-16T12:32:13Z</time>
      </trkpt>
      <trkpt lat="42.99183" lon="0.0916">
        <ele>1215.3</ele>
        <time>2016-10-16T12:32:14Z</time>
      </trkpt>
      <trkpt lat="42.99185" lon="0.09182">
        <ele>1211.2</ele>
        <time>2016-10-16T12:32:33Z</time>
      </trkpt>
      <trkpt lat="42.99187" lon="0.09193">
        <ele>1209.1</ele>
        <time>2016-10-16T12:32:41Z</time>
      </trkpt>
      <trkpt lat="42.99187" lon="0.09204">
        <ele>1205.6</ele>
        <time>2016-10-16T12:32:50Z</time>
      </trkpt>
      <trkpt lat="42.99185" lon="0.09216">
        <ele>1203.9</ele>
        <time>2016-10-16T12:33:03Z</time>
      </trkpt>
      <trkpt lat="42.99182" lon="0.09227">
        <ele>1203</ele>
        <time>2016-10-16T12:33:11Z</time>
      </trkpt>
      <trkpt lat="42.99178" lon="0.09237">
        <ele>1202</ele>
        <time>2016-10-16T12:33:18Z</time>
      </trkpt>
      <trkpt lat="42.99178" lon="0.09238">
        <ele>1202</ele>
        <time>2016-10-16T12:33:19Z</time>
      </trkpt>
      <trkpt lat="42.99174" lon="0.09259">
        <ele>1199</ele>
        <time>2016-10-16T12:33:34Z</time>
      </trkpt>
      <trkpt lat="42.99174" lon="0.0927">
        <ele>1195.5</ele>
        <time>2016-10-16T12:33:43Z</time>
      </trkpt>
      <trkpt lat="42.99174" lon="0.09282">
        <ele>1193.3</ele>
        <time>2016-10-16T12:33:53Z</time>
      </trkpt>
      <trkpt lat="42.99173" lon="0.09294">
        <ele>1190.1</ele>
        <time>2016-10-16T12:34:10Z</time>
      </trkpt>
      <trkpt lat="42.99172" lon="0.09306">
        <ele>1188.9</ele>
        <time>2016-10-16T12:35:04Z</time>
      </trkpt>
      <trkpt lat="42.99172" lon="0.09307">
        <ele>1188.7</ele>
        <time>2016-10-16T12:35:05Z</time>
      </trkpt>
      <trkpt lat="42.9917" lon="0.0933">
        <ele>1184.8</ele>
        <time>2016-10-16T12:35:26Z</time>
      </trkpt>
      <trkpt lat="42.99169" lon="0.09341">
        <ele>1183.7</ele>
        <time>2016-10-16T12:35:37Z</time>
      </trkpt>
      <trkpt lat="42.99167" lon="0.09352">
        <ele>1180.7</ele>
        <time>2016-10-16T12:35:46Z</time>
      </trkpt>
      <trkpt lat="42.99164" lon="0.09363">
        <ele>1178.7</ele>
        <time>2016-10-16T12:35:53Z</time>
      </trkpt>
      <trkpt lat="42.99162" lon="0.09375">
        <ele>1176.7</ele>
        <time>2016-10-16T12:36:01Z</time>
      </trkpt>
      <trkpt lat="42.99165" lon="0.09385">
        <ele>1174.9</ele>
        <time>2016-10-16T12:36:09Z</time>
      </trkpt>
      <trkpt lat="42.99166" lon="0.09387">
        <ele>1174.3</ele>
        <time>2016-10-16T12:36:10Z</time>
      </trkpt>
      <trkpt lat="42.9917" lon="0.09409">
        <ele>1169.9</ele>
        <time>2016-10-16T12:36:32Z</time>
      </trkpt>
      <trkpt lat="42.99172" lon="0.0942">
        <ele>1168.6</ele>
        <time>2016-10-16T12:36:41Z</time>
      </trkpt>
      <trkpt lat="42.99173" lon="0.09431">
        <ele>1165.6</ele>
        <time>2016-10-16T12:36:49Z</time>
      </trkpt>
      <trkpt lat="42.99177" lon="0.09441">
        <ele>1163.9</ele>
        <time>2016-10-16T12:37:00Z</time>
      </trkpt>
      <trkpt lat="42.9918" lon="0.09451">
        <ele>1162.2</ele>
        <time>2016-10-16T12:37:09Z</time>
      </trkpt>
      <trkpt lat="42.9918" lon="0.09452">
        <ele>1162</ele>
        <time>2016-10-16T12:37:10Z</time>
      </trkpt>
      <trkpt lat="42.99187" lon="0.09472">
        <ele>1156.1</ele>
        <time>2016-10-16T12:37:26Z</time>
      </trkpt>
      <trkpt lat="42.99188" lon="0.09483">
        <ele>1155.4</ele>
        <time>2016-10-16T12:37:33Z</time>
      </trkpt>
      <trkpt lat="42.99185" lon="0.09494">
        <ele>1153.2</ele>
        <time>2016-10-16T12:37:39Z</time>
      </trkpt>
      <trkpt lat="42.99187" lon="0.09506">
        <ele>1152.6</ele>
        <time>2016-10-16T12:37:47Z</time>
      </trkpt>
      <trkpt lat="42.99192" lon="0.09516">
        <ele>1148.7</ele>
        <time>2016-10-16T12:38:07Z</time>
      </trkpt>
      <trkpt lat="42.99188" lon="0.09527">
        <ele>1149.7</ele>
        <time>2016-10-16T12:38:24Z</time>
      </trkpt>
      <trkpt lat="42.99188" lon="0.09527">
        <ele>1149.4</ele>
        <time>2016-10-16T12:38:25Z</time>
      </trkpt>
      <trkpt lat="42.99181" lon="0.09536">
        <ele>1149.4</ele>
        <time>2016-10-16T12:39:34Z</time>
      </trkpt>
      <trkpt lat="42.99166" lon="0.09544">
        <ele>1148.2</ele>
        <time>2016-10-16T12:39:49Z</time>
      </trkpt>
      <trkpt lat="42.99158" lon="0.09545">
        <ele>1146.4</ele>
        <time>2016-10-16T12:39:57Z</time>
      </trkpt>
      <trkpt lat="42.99149" lon="0.09542">
        <ele>1145.5</ele>
        <time>2016-10-16T12:40:05Z</time>
      </trkpt>
      <trkpt lat="42.99141" lon="0.09538">
        <ele>1143.7</ele>
        <time>2016-10-16T12:40:12Z</time>
      </trkpt>
      <trkpt lat="42.99134" lon="0.09532">
        <ele>1142.7</ele>
        <time>2016-10-16T12:40:18Z</time>
      </trkpt>
      <trkpt lat="42.99126" lon="0.09527">
        <ele>1141.6</ele>
        <time>2016-10-16T12:40:24Z</time>
      </trkpt>
      <trkpt lat="42.99118" lon="0.09523">
        <ele>1140.8</ele>
        <time>2016-10-16T12:40:30Z</time>
      </trkpt>
      <trkpt lat="42.99111" lon="0.09521">
        <ele>1139.9</ele>
        <time>2016-10-16T12:40:36Z</time>
      </trkpt>
      <trkpt lat="42.99109" lon="0.0952">
        <ele>1139.9</ele>
        <time>2016-10-16T12:40:37Z</time>
      </trkpt>
      <trkpt lat="42.99094" lon="0.09515">
        <ele>1138.1</ele>
        <time>2016-10-16T12:40:49Z</time>
      </trkpt>
      <trkpt lat="42.99085" lon="0.09512">
        <ele>1138</ele>
        <time>2016-10-16T12:40:56Z</time>
      </trkpt>
      <trkpt lat="42.99078" lon="0.09507">
        <ele>1137.2</ele>
        <time>2016-10-16T12:41:01Z</time>
      </trkpt>
      <trkpt lat="42.99071" lon="0.09502">
        <ele>1135.8</ele>
        <time>2016-10-16T12:41:06Z</time>
      </trkpt>
      <trkpt lat="42.99064" lon="0.09496">
        <ele>1134.7</ele>
        <time>2016-10-16T12:41:13Z</time>
      </trkpt>
      <trkpt lat="42.99057" lon="0.0949">
        <ele>1132.8</ele>
        <time>2016-10-16T12:41:19Z</time>
      </trkpt>
      <trkpt lat="42.9905" lon="0.09485">
        <ele>1132.7</ele>
        <time>2016-10-16T12:41:24Z</time>
      </trkpt>
      <trkpt lat="42.99043" lon="0.09479">
        <ele>1131.8</ele>
        <time>2016-10-16T12:41:30Z</time>
      </trkpt>
      <trkpt lat="42.99035" lon="0.09477">
        <ele>1130.8</ele>
        <time>2016-10-16T12:41:36Z</time>
      </trkpt>
      <trkpt lat="42.99026" lon="0.09477">
        <ele>1130.7</ele>
        <time>2016-10-16T12:41:57Z</time>
      </trkpt>
      <trkpt lat="42.99026" lon="0.09477">
        <ele>1130.7</ele>
        <time>2016-10-16T12:41:57Z</time>
      </trkpt>
    </trkseg>
  </trk>
</gpx>